<?xml version="1.0" encoding="UTF-8" standalone="no" ?>
<gpx xmlns="http://www.topografix.com/GPX/1/1" xmlns:xsi="http://www.w3.org/2001/XMLSchema-instance" xsi:schemaLocation="http://www.topografix.com/GPX/1/1 http://www.topografix.com/GPX/1/1/gpx.xsd" version="1.1" creator="VisuGPX - https://www.visugpx.com">
  <metadata>
    <name>Fète du vélo Obernai 2017</name>
    <desc><![CDATA[Parcours en boucle de 17 Kms avec AR depuis Rosheim, rue des Vosges
]]></desc>
  </metadata>
  <trk>
    <name><![CDATA[20170605]]></name>
    <trkseg>
      <trkpt lat="48.49721" lon="7.46087">
        <ele>-0.583066</ele>
        <time>2017-06-05T10:36:24Z</time>
      </trkpt>
      <trkpt lat="48.4973" lon="7.4612">
        <ele>-12.763614</ele>
        <time>2017-06-05T10:36:43Z</time>
      </trkpt>
      <trkpt lat="48.49734" lon="7.46126">
        <ele>-12.051895</ele>
        <time>2017-06-05T10:36:48Z</time>
      </trkpt>
      <trkpt lat="48.49739" lon="7.46126">
        <ele>-9.621356</ele>
        <time>2017-06-05T10:36:57Z</time>
      </trkpt>
      <trkpt lat="48.49745" lon="7.4612">
        <ele>-3.968312</ele>
        <time>2017-06-05T10:37:02Z</time>
      </trkpt>
      <trkpt lat="48.49762" lon="7.46118">
        <ele>10.45675</ele>
        <time>2017-06-05T10:37:07Z</time>
      </trkpt>
      <trkpt lat="48.49779" lon="7.46135">
        <ele>34.792187</ele>
        <time>2017-06-05T10:37:12Z</time>
      </trkpt>
      <trkpt lat="48.49791" lon="7.46186">
        <ele>71.023074</ele>
        <time>2017-06-05T10:37:17Z</time>
      </trkpt>
      <trkpt lat="48.49806" lon="7.46267">
        <ele>119.443014</ele>
        <time>2017-06-05T10:37:22Z</time>
      </trkpt>
      <trkpt lat="48.49815" lon="7.46354">
        <ele>189.279819</ele>
        <time>2017-06-05T10:37:27Z</time>
      </trkpt>
      <trkpt lat="48.49827" lon="7.46391">
        <ele>208.172353</ele>
        <time>2017-06-05T10:37:32Z</time>
      </trkpt>
      <trkpt lat="48.49839" lon="7.46421">
        <ele>210.334012</ele>
        <time>2017-06-05T10:37:37Z</time>
      </trkpt>
      <trkpt lat="48.49853" lon="7.4631">
        <ele>113.268461</ele>
        <time>2017-06-05T10:37:42Z</time>
      </trkpt>
      <trkpt lat="48.49861" lon="7.46358">
        <ele>119.920114</ele>
        <time>2017-06-05T10:37:47Z</time>
      </trkpt>
      <trkpt lat="48.49873" lon="7.46395">
        <ele>125.324086</ele>
        <time>2017-06-05T10:37:52Z</time>
      </trkpt>
      <trkpt lat="48.49882" lon="7.46438">
        <ele>132.38073</ele>
        <time>2017-06-05T10:37:57Z</time>
      </trkpt>
      <trkpt lat="48.4988" lon="7.46494">
        <ele>146.765023</ele>
        <time>2017-06-05T10:38:02Z</time>
      </trkpt>
      <trkpt lat="48.49882" lon="7.46467">
        <ele>93.814385</ele>
        <time>2017-06-05T10:38:07Z</time>
      </trkpt>
      <trkpt lat="48.49886" lon="7.46502">
        <ele>101.479117</ele>
        <time>2017-06-05T10:38:12Z</time>
      </trkpt>
      <trkpt lat="48.49894" lon="7.46716">
        <ele>182.02644</ele>
        <time>2017-06-05T10:38:17Z</time>
      </trkpt>
      <trkpt lat="48.49897" lon="7.46785">
        <ele>223.967155</ele>
        <time>2017-06-05T10:38:22Z</time>
      </trkpt>
      <trkpt lat="48.49901" lon="7.46843">
        <ele>248.740602</ele>
        <time>2017-06-05T10:38:27Z</time>
      </trkpt>
      <trkpt lat="48.49905" lon="7.46906">
        <ele>271.795913</ele>
        <time>2017-06-05T10:38:32Z</time>
      </trkpt>
      <trkpt lat="48.49909" lon="7.46966">
        <ele>289.718272</ele>
        <time>2017-06-05T10:38:37Z</time>
      </trkpt>
      <trkpt lat="48.49918" lon="7.46942">
        <ele>273.64665</ele>
        <time>2017-06-05T10:38:42Z</time>
      </trkpt>
      <trkpt lat="48.49928" lon="7.46969">
        <ele>268.994888</ele>
        <time>2017-06-05T10:38:47Z</time>
      </trkpt>
      <trkpt lat="48.49922" lon="7.46997">
        <ele>265.561295</ele>
        <time>2017-06-05T10:38:52Z</time>
      </trkpt>
      <trkpt lat="48.49906" lon="7.47009">
        <ele>262.507598</ele>
        <time>2017-06-05T10:38:57Z</time>
      </trkpt>
      <trkpt lat="48.49886" lon="7.47017">
        <ele>259.005866</ele>
        <time>2017-06-05T10:39:02Z</time>
      </trkpt>
      <trkpt lat="48.4987" lon="7.47022">
        <ele>254.772607</ele>
        <time>2017-06-05T10:39:07Z</time>
      </trkpt>
      <trkpt lat="48.49844" lon="7.47036">
        <ele>246.189215</ele>
        <time>2017-06-05T10:39:12Z</time>
      </trkpt>
      <trkpt lat="48.49823" lon="7.47041">
        <ele>246.641375</ele>
        <time>2017-06-05T10:39:17Z</time>
      </trkpt>
      <trkpt lat="48.49798" lon="7.47047">
        <ele>241.937248</ele>
        <time>2017-06-05T10:39:22Z</time>
      </trkpt>
      <trkpt lat="48.49778" lon="7.47055">
        <ele>241.247861</ele>
        <time>2017-06-05T10:39:27Z</time>
      </trkpt>
      <trkpt lat="48.49753" lon="7.47067">
        <ele>239.043468</ele>
        <time>2017-06-05T10:39:32Z</time>
      </trkpt>
      <trkpt lat="48.49731" lon="7.47089">
        <ele>238.461195</ele>
        <time>2017-06-05T10:39:37Z</time>
      </trkpt>
      <trkpt lat="48.49726" lon="7.47123">
        <ele>245.484405</ele>
        <time>2017-06-05T10:39:42Z</time>
      </trkpt>
      <trkpt lat="48.49715" lon="7.47142">
        <ele>246.041739</ele>
        <time>2017-06-05T10:39:47Z</time>
      </trkpt>
      <trkpt lat="48.4969" lon="7.47167">
        <ele>237.583489</ele>
        <time>2017-06-05T10:39:52Z</time>
      </trkpt>
      <trkpt lat="48.4967" lon="7.4718">
        <ele>235.176292</ele>
        <time>2017-06-05T10:39:57Z</time>
      </trkpt>
      <trkpt lat="48.49669" lon="7.47209">
        <ele>233.516986</ele>
        <time>2017-06-05T10:40:02Z</time>
      </trkpt>
      <trkpt lat="48.49673" lon="7.47242">
        <ele>228.179779</ele>
        <time>2017-06-05T10:40:07Z</time>
      </trkpt>
      <trkpt lat="48.49679" lon="7.47285">
        <ele>235.049697</ele>
        <time>2017-06-05T10:40:12Z</time>
      </trkpt>
      <trkpt lat="48.49686" lon="7.47333">
        <ele>234.497259</ele>
        <time>2017-06-05T10:40:17Z</time>
      </trkpt>
      <trkpt lat="48.49691" lon="7.47383">
        <ele>234.682555</ele>
        <time>2017-06-05T10:40:22Z</time>
      </trkpt>
      <trkpt lat="48.49705" lon="7.47427">
        <ele>233.582475</ele>
        <time>2017-06-05T10:40:27Z</time>
      </trkpt>
      <trkpt lat="48.49718" lon="7.47469">
        <ele>232.310192</ele>
        <time>2017-06-05T10:40:32Z</time>
      </trkpt>
      <trkpt lat="48.49693" lon="7.47502">
        <ele>231.577699</ele>
        <time>2017-06-05T10:40:37Z</time>
      </trkpt>
      <trkpt lat="48.49661" lon="7.47528">
        <ele>229.863052</ele>
        <time>2017-06-05T10:40:42Z</time>
      </trkpt>
      <trkpt lat="48.49636" lon="7.4755">
        <ele>228.441284</ele>
        <time>2017-06-05T10:40:47Z</time>
      </trkpt>
      <trkpt lat="48.49629" lon="7.47576">
        <ele>230.455128</ele>
        <time>2017-06-05T10:40:52Z</time>
      </trkpt>
      <trkpt lat="48.49631" lon="7.4761">
        <ele>234.292197</ele>
        <time>2017-06-05T10:40:57Z</time>
      </trkpt>
      <trkpt lat="48.4963" lon="7.47645">
        <ele>233.813992</ele>
        <time>2017-06-05T10:41:02Z</time>
      </trkpt>
      <trkpt lat="48.49625" lon="7.47676">
        <ele>234.864551</ele>
        <time>2017-06-05T10:41:07Z</time>
      </trkpt>
      <trkpt lat="48.49616" lon="7.47696">
        <ele>235.035942</ele>
        <time>2017-06-05T10:41:12Z</time>
      </trkpt>
      <trkpt lat="48.4961" lon="7.47717">
        <ele>236.048167</ele>
        <time>2017-06-05T10:41:17Z</time>
      </trkpt>
      <trkpt lat="48.49603" lon="7.47739">
        <ele>237.146673</ele>
        <time>2017-06-05T10:41:22Z</time>
      </trkpt>
      <trkpt lat="48.49597" lon="7.47766">
        <ele>237.846911</ele>
        <time>2017-06-05T10:41:27Z</time>
      </trkpt>
      <trkpt lat="48.49591" lon="7.47792">
        <ele>237.141271</ele>
        <time>2017-06-05T10:41:32Z</time>
      </trkpt>
      <trkpt lat="48.49582" lon="7.47821">
        <ele>237.830396</ele>
        <time>2017-06-05T10:41:37Z</time>
      </trkpt>
      <trkpt lat="48.49573" lon="7.47848">
        <ele>239.839301</ele>
        <time>2017-06-05T10:41:42Z</time>
      </trkpt>
      <trkpt lat="48.49568" lon="7.47874">
        <ele>239.88278</ele>
        <time>2017-06-05T10:41:47Z</time>
      </trkpt>
      <trkpt lat="48.49557" lon="7.47895">
        <ele>234.904144</ele>
        <time>2017-06-05T10:41:52Z</time>
      </trkpt>
      <trkpt lat="48.49542" lon="7.47895">
        <ele>236.878056</ele>
        <time>2017-06-05T10:41:57Z</time>
      </trkpt>
      <trkpt lat="48.49529" lon="7.47908">
        <ele>237.657187</ele>
        <time>2017-06-05T10:42:02Z</time>
      </trkpt>
      <trkpt lat="48.49515" lon="7.47925">
        <ele>238.603289</ele>
        <time>2017-06-05T10:42:07Z</time>
      </trkpt>
      <trkpt lat="48.49501" lon="7.47942">
        <ele>238.892409</ele>
        <time>2017-06-05T10:42:12Z</time>
      </trkpt>
      <trkpt lat="48.49486" lon="7.47963">
        <ele>239.348536</ele>
        <time>2017-06-05T10:42:17Z</time>
      </trkpt>
      <trkpt lat="48.49471" lon="7.47986">
        <ele>238.576914</ele>
        <time>2017-06-05T10:42:22Z</time>
      </trkpt>
      <trkpt lat="48.49457" lon="7.48008">
        <ele>239.868369</ele>
        <time>2017-06-05T10:42:27Z</time>
      </trkpt>
      <trkpt lat="48.49442" lon="7.48033">
        <ele>239.269459</ele>
        <time>2017-06-05T10:42:32Z</time>
      </trkpt>
      <trkpt lat="48.4943" lon="7.48062">
        <ele>239.026866</ele>
        <time>2017-06-05T10:42:37Z</time>
      </trkpt>
      <trkpt lat="48.49418" lon="7.48091">
        <ele>239.527706</ele>
        <time>2017-06-05T10:42:42Z</time>
      </trkpt>
      <trkpt lat="48.49407" lon="7.48121">
        <ele>240.212312</ele>
        <time>2017-06-05T10:42:47Z</time>
      </trkpt>
      <trkpt lat="48.49399" lon="7.4815">
        <ele>239.496614</ele>
        <time>2017-06-05T10:42:52Z</time>
      </trkpt>
      <trkpt lat="48.49392" lon="7.48183">
        <ele>240.629472</ele>
        <time>2017-06-05T10:42:57Z</time>
      </trkpt>
      <trkpt lat="48.49385" lon="7.48217">
        <ele>240.442785</ele>
        <time>2017-06-05T10:43:02Z</time>
      </trkpt>
      <trkpt lat="48.4938" lon="7.4825">
        <ele>240.918794</ele>
        <time>2017-06-05T10:43:07Z</time>
      </trkpt>
      <trkpt lat="48.49375" lon="7.48284">
        <ele>238.674846</ele>
        <time>2017-06-05T10:43:12Z</time>
      </trkpt>
      <trkpt lat="48.4937" lon="7.48315">
        <ele>238.321384</ele>
        <time>2017-06-05T10:43:17Z</time>
      </trkpt>
      <trkpt lat="48.49365" lon="7.48344">
        <ele>239.287638</ele>
        <time>2017-06-05T10:43:22Z</time>
      </trkpt>
      <trkpt lat="48.49361" lon="7.48374">
        <ele>241.838046</ele>
        <time>2017-06-05T10:43:27Z</time>
      </trkpt>
      <trkpt lat="48.49355" lon="7.48408">
        <ele>240.908589</ele>
        <time>2017-06-05T10:43:32Z</time>
      </trkpt>
      <trkpt lat="48.49349" lon="7.48444">
        <ele>240.151877</ele>
        <time>2017-06-05T10:43:37Z</time>
      </trkpt>
      <trkpt lat="48.49343" lon="7.48477">
        <ele>239.222631</ele>
        <time>2017-06-05T10:43:42Z</time>
      </trkpt>
      <trkpt lat="48.49339" lon="7.4851">
        <ele>239.791245</ele>
        <time>2017-06-05T10:43:47Z</time>
      </trkpt>
      <trkpt lat="48.49333" lon="7.48545">
        <ele>240.354473</ele>
        <time>2017-06-05T10:43:52Z</time>
      </trkpt>
      <trkpt lat="48.49327" lon="7.48578">
        <ele>241.58035</ele>
        <time>2017-06-05T10:43:57Z</time>
      </trkpt>
      <trkpt lat="48.49323" lon="7.48609">
        <ele>241.976584</ele>
        <time>2017-06-05T10:44:02Z</time>
      </trkpt>
      <trkpt lat="48.49318" lon="7.48641">
        <ele>243.116307</ele>
        <time>2017-06-05T10:44:07Z</time>
      </trkpt>
      <trkpt lat="48.49311" lon="7.48674">
        <ele>242.844718</ele>
        <time>2017-06-05T10:44:12Z</time>
      </trkpt>
      <trkpt lat="48.49307" lon="7.48706">
        <ele>242.67051</ele>
        <time>2017-06-05T10:44:17Z</time>
      </trkpt>
      <trkpt lat="48.49297" lon="7.48722">
        <ele>242.401533</ele>
        <time>2017-06-05T10:44:22Z</time>
      </trkpt>
      <trkpt lat="48.4929" lon="7.48747">
        <ele>243.675051</ele>
        <time>2017-06-05T10:44:27Z</time>
      </trkpt>
      <trkpt lat="48.49285" lon="7.48778">
        <ele>244.728823</ele>
        <time>2017-06-05T10:44:32Z</time>
      </trkpt>
      <trkpt lat="48.4928" lon="7.4881">
        <ele>243.806047</ele>
        <time>2017-06-05T10:44:37Z</time>
      </trkpt>
      <trkpt lat="48.49275" lon="7.48844">
        <ele>243.713163</ele>
        <time>2017-06-05T10:44:42Z</time>
      </trkpt>
      <trkpt lat="48.49267" lon="7.48877">
        <ele>243.350399</ele>
        <time>2017-06-05T10:44:47Z</time>
      </trkpt>
      <trkpt lat="48.49261" lon="7.4891">
        <ele>244.485479</ele>
        <time>2017-06-05T10:44:52Z</time>
      </trkpt>
      <trkpt lat="48.49253" lon="7.48945">
        <ele>246.364105</ele>
        <time>2017-06-05T10:44:57Z</time>
      </trkpt>
      <trkpt lat="48.49244" lon="7.48979">
        <ele>245.996237</ele>
        <time>2017-06-05T10:45:02Z</time>
      </trkpt>
      <trkpt lat="48.49233" lon="7.49012">
        <ele>247.599679</ele>
        <time>2017-06-05T10:45:07Z</time>
      </trkpt>
      <trkpt lat="48.49222" lon="7.49048">
        <ele>247.226638</ele>
        <time>2017-06-05T10:45:12Z</time>
      </trkpt>
      <trkpt lat="48.49212" lon="7.4908">
        <ele>247.337997</ele>
        <time>2017-06-05T10:45:17Z</time>
      </trkpt>
      <trkpt lat="48.49204" lon="7.49109">
        <ele>245.31086</ele>
        <time>2017-06-05T10:45:22Z</time>
      </trkpt>
      <trkpt lat="48.49196" lon="7.4914">
        <ele>246.182072</ele>
        <time>2017-06-05T10:45:27Z</time>
      </trkpt>
      <trkpt lat="48.49186" lon="7.49172">
        <ele>245.636672</ele>
        <time>2017-06-05T10:45:32Z</time>
      </trkpt>
      <trkpt lat="48.49175" lon="7.49206">
        <ele>245.834867</ele>
        <time>2017-06-05T10:45:37Z</time>
      </trkpt>
      <trkpt lat="48.49166" lon="7.49236">
        <ele>245.208652</ele>
        <time>2017-06-05T10:45:42Z</time>
      </trkpt>
      <trkpt lat="48.49155" lon="7.49267">
        <ele>245.234234</ele>
        <time>2017-06-05T10:45:47Z</time>
      </trkpt>
      <trkpt lat="48.49146" lon="7.49301">
        <ele>245.524554</ele>
        <time>2017-06-05T10:45:52Z</time>
      </trkpt>
      <trkpt lat="48.49134" lon="7.49334">
        <ele>244.887925</ele>
        <time>2017-06-05T10:45:57Z</time>
      </trkpt>
      <trkpt lat="48.49122" lon="7.49365">
        <ele>245.57091</ele>
        <time>2017-06-05T10:46:02Z</time>
      </trkpt>
      <trkpt lat="48.49108" lon="7.49397">
        <ele>244.750954</ele>
        <time>2017-06-05T10:46:07Z</time>
      </trkpt>
      <trkpt lat="48.49095" lon="7.49432">
        <ele>244.852856</ele>
        <time>2017-06-05T10:46:12Z</time>
      </trkpt>
      <trkpt lat="48.49081" lon="7.49464">
        <ele>244.782009</ele>
        <time>2017-06-05T10:46:17Z</time>
      </trkpt>
      <trkpt lat="48.49067" lon="7.49492">
        <ele>242.95425</ele>
        <time>2017-06-05T10:46:22Z</time>
      </trkpt>
      <trkpt lat="48.49054" lon="7.49517">
        <ele>242.451391</ele>
        <time>2017-06-05T10:46:27Z</time>
      </trkpt>
      <trkpt lat="48.49041" lon="7.49539">
        <ele>242.438105</ele>
        <time>2017-06-05T10:46:32Z</time>
      </trkpt>
      <trkpt lat="48.49027" lon="7.49563">
        <ele>241.757196</ele>
        <time>2017-06-05T10:46:37Z</time>
      </trkpt>
      <trkpt lat="48.4901" lon="7.49585">
        <ele>242.212331</ele>
        <time>2017-06-05T10:46:42Z</time>
      </trkpt>
      <trkpt lat="48.48995" lon="7.49601">
        <ele>242.41347</ele>
        <time>2017-06-05T10:46:47Z</time>
      </trkpt>
      <trkpt lat="48.48984" lon="7.49613">
        <ele>241.795237</ele>
        <time>2017-06-05T10:46:52Z</time>
      </trkpt>
      <trkpt lat="48.48975" lon="7.49626">
        <ele>243.515301</ele>
        <time>2017-06-05T10:46:57Z</time>
      </trkpt>
      <trkpt lat="48.48966" lon="7.49635">
        <ele>242.158863</ele>
        <time>2017-06-05T10:47:02Z</time>
      </trkpt>
      <trkpt lat="48.4896" lon="7.49645">
        <ele>241.077682</ele>
        <time>2017-06-05T10:47:07Z</time>
      </trkpt>
      <trkpt lat="48.48952" lon="7.49659">
        <ele>240.072434</ele>
        <time>2017-06-05T10:47:12Z</time>
      </trkpt>
      <trkpt lat="48.48936" lon="7.49661">
        <ele>239.888045</ele>
        <time>2017-06-05T10:47:17Z</time>
      </trkpt>
      <trkpt lat="48.48916" lon="7.49665">
        <ele>237.53842</ele>
        <time>2017-06-05T10:47:22Z</time>
      </trkpt>
      <trkpt lat="48.48893" lon="7.49665">
        <ele>237.466126</ele>
        <time>2017-06-05T10:47:27Z</time>
      </trkpt>
      <trkpt lat="48.48868" lon="7.49665">
        <ele>238.702888</ele>
        <time>2017-06-05T10:47:32Z</time>
      </trkpt>
      <trkpt lat="48.48843" lon="7.49667">
        <ele>238.712037</ele>
        <time>2017-06-05T10:47:37Z</time>
      </trkpt>
      <trkpt lat="48.48817" lon="7.49667">
        <ele>238.543121</ele>
        <time>2017-06-05T10:47:42Z</time>
      </trkpt>
      <trkpt lat="48.48794" lon="7.49667">
        <ele>239.214851</ele>
        <time>2017-06-05T10:47:47Z</time>
      </trkpt>
      <trkpt lat="48.48772" lon="7.4966">
        <ele>240.208373</ele>
        <time>2017-06-05T10:47:52Z</time>
      </trkpt>
      <trkpt lat="48.48752" lon="7.49667">
        <ele>237.94061</ele>
        <time>2017-06-05T10:47:57Z</time>
      </trkpt>
      <trkpt lat="48.48724" lon="7.49667">
        <ele>234.776916</ele>
        <time>2017-06-05T10:48:02Z</time>
      </trkpt>
      <trkpt lat="48.48697" lon="7.49669">
        <ele>233.197457</ele>
        <time>2017-06-05T10:48:07Z</time>
      </trkpt>
      <trkpt lat="48.48669" lon="7.4967">
        <ele>233.681197</ele>
        <time>2017-06-05T10:48:12Z</time>
      </trkpt>
      <trkpt lat="48.48642" lon="7.49675">
        <ele>235.922107</ele>
        <time>2017-06-05T10:48:17Z</time>
      </trkpt>
      <trkpt lat="48.48615" lon="7.49682">
        <ele>237.500838</ele>
        <time>2017-06-05T10:48:22Z</time>
      </trkpt>
      <trkpt lat="48.48585" lon="7.49687">
        <ele>238.061143</ele>
        <time>2017-06-05T10:48:27Z</time>
      </trkpt>
      <trkpt lat="48.48558" lon="7.49693">
        <ele>236.084705</ele>
        <time>2017-06-05T10:48:32Z</time>
      </trkpt>
      <trkpt lat="48.48527" lon="7.49698">
        <ele>235.896565</ele>
        <time>2017-06-05T10:48:37Z</time>
      </trkpt>
      <trkpt lat="48.48496" lon="7.49703">
        <ele>233.5539</ele>
        <time>2017-06-05T10:48:42Z</time>
      </trkpt>
      <trkpt lat="48.48467" lon="7.49714">
        <ele>233.238164</ele>
        <time>2017-06-05T10:48:47Z</time>
      </trkpt>
      <trkpt lat="48.48439" lon="7.49721">
        <ele>232.66314</ele>
        <time>2017-06-05T10:48:52Z</time>
      </trkpt>
      <trkpt lat="48.4841" lon="7.49727">
        <ele>233.402593</ele>
        <time>2017-06-05T10:48:57Z</time>
      </trkpt>
      <trkpt lat="48.4838" lon="7.49735">
        <ele>231.325232</ele>
        <time>2017-06-05T10:49:02Z</time>
      </trkpt>
      <trkpt lat="48.48349" lon="7.49743">
        <ele>231.311159</ele>
        <time>2017-06-05T10:49:07Z</time>
      </trkpt>
      <trkpt lat="48.48316" lon="7.4975">
        <ele>231.205691</ele>
        <time>2017-06-05T10:49:12Z</time>
      </trkpt>
      <trkpt lat="48.48284" lon="7.49756">
        <ele>231.762699</ele>
        <time>2017-06-05T10:49:17Z</time>
      </trkpt>
      <trkpt lat="48.48252" lon="7.49764">
        <ele>231.657645</ele>
        <time>2017-06-05T10:49:22Z</time>
      </trkpt>
      <trkpt lat="48.48221" lon="7.4977">
        <ele>231.557871</ele>
        <time>2017-06-05T10:49:27Z</time>
      </trkpt>
      <trkpt lat="48.48189" lon="7.49778">
        <ele>232.201972</ele>
        <time>2017-06-05T10:49:32Z</time>
      </trkpt>
      <trkpt lat="48.48158" lon="7.49786">
        <ele>231.531889</ele>
        <time>2017-06-05T10:49:37Z</time>
      </trkpt>
      <trkpt lat="48.48129" lon="7.49792">
        <ele>230.867037</ele>
        <time>2017-06-05T10:49:42Z</time>
      </trkpt>
      <trkpt lat="48.48097" lon="7.498">
        <ele>231.511718</ele>
        <time>2017-06-05T10:49:47Z</time>
      </trkpt>
      <trkpt lat="48.48066" lon="7.49806">
        <ele>230.664165</ele>
        <time>2017-06-05T10:49:52Z</time>
      </trkpt>
      <trkpt lat="48.48036" lon="7.49814">
        <ele>230.743559</ele>
        <time>2017-06-05T10:49:57Z</time>
      </trkpt>
      <trkpt lat="48.48005" lon="7.4982">
        <ele>229.23918</ele>
        <time>2017-06-05T10:50:02Z</time>
      </trkpt>
      <trkpt lat="48.47974" lon="7.49828">
        <ele>229.976154</ele>
        <time>2017-06-05T10:50:07Z</time>
      </trkpt>
      <trkpt lat="48.47944" lon="7.49835">
        <ele>229.969589</ele>
        <time>2017-06-05T10:50:12Z</time>
      </trkpt>
      <trkpt lat="48.47914" lon="7.49842">
        <ele>229.300994</ele>
        <time>2017-06-05T10:50:17Z</time>
      </trkpt>
      <trkpt lat="48.47883" lon="7.49849">
        <ele>229.203303</ele>
        <time>2017-06-05T10:50:22Z</time>
      </trkpt>
      <trkpt lat="48.47853" lon="7.49857">
        <ele>230.032496</ele>
        <time>2017-06-05T10:50:27Z</time>
      </trkpt>
      <trkpt lat="48.47826" lon="7.49862">
        <ele>231.529014</ele>
        <time>2017-06-05T10:50:32Z</time>
      </trkpt>
      <trkpt lat="48.47804" lon="7.49868">
        <ele>233.391533</ele>
        <time>2017-06-05T10:50:37Z</time>
      </trkpt>
      <trkpt lat="48.47779" lon="7.49871">
        <ele>233.492269</ele>
        <time>2017-06-05T10:50:42Z</time>
      </trkpt>
      <trkpt lat="48.47755" lon="7.49876">
        <ele>234.428332</ele>
        <time>2017-06-05T10:50:47Z</time>
      </trkpt>
      <trkpt lat="48.4773" lon="7.49876">
        <ele>233.607581</ele>
        <time>2017-06-05T10:50:52Z</time>
      </trkpt>
      <trkpt lat="48.47705" lon="7.49872">
        <ele>233.184659</ele>
        <time>2017-06-05T10:50:57Z</time>
      </trkpt>
      <trkpt lat="48.47679" lon="7.49868">
        <ele>234.825057</ele>
        <time>2017-06-05T10:51:02Z</time>
      </trkpt>
      <trkpt lat="48.4766" lon="7.4986">
        <ele>235.919418</ele>
        <time>2017-06-05T10:51:07Z</time>
      </trkpt>
      <trkpt lat="48.47643" lon="7.4985">
        <ele>237.018765</ele>
        <time>2017-06-05T10:51:12Z</time>
      </trkpt>
      <trkpt lat="48.47625" lon="7.49837">
        <ele>237.109963</ele>
        <time>2017-06-05T10:51:17Z</time>
      </trkpt>
      <trkpt lat="48.47607" lon="7.49822">
        <ele>236.36605</ele>
        <time>2017-06-05T10:51:22Z</time>
      </trkpt>
      <trkpt lat="48.47588" lon="7.49808">
        <ele>237.771938</ele>
        <time>2017-06-05T10:51:27Z</time>
      </trkpt>
      <trkpt lat="48.47569" lon="7.49792">
        <ele>237.598956</ele>
        <time>2017-06-05T10:51:32Z</time>
      </trkpt>
      <trkpt lat="48.47548" lon="7.49776">
        <ele>238.078443</ele>
        <time>2017-06-05T10:51:37Z</time>
      </trkpt>
      <trkpt lat="48.47529" lon="7.4976">
        <ele>237.15698</ele>
        <time>2017-06-05T10:51:42Z</time>
      </trkpt>
      <trkpt lat="48.47511" lon="7.49746">
        <ele>237.248676</ele>
        <time>2017-06-05T10:51:47Z</time>
      </trkpt>
      <trkpt lat="48.47492" lon="7.49732">
        <ele>238.655009</ele>
        <time>2017-06-05T10:51:52Z</time>
      </trkpt>
      <trkpt lat="48.47471" lon="7.49714">
        <ele>237.55594</ele>
        <time>2017-06-05T10:51:57Z</time>
      </trkpt>
      <trkpt lat="48.47448" lon="7.49696">
        <ele>236.274231</ele>
        <time>2017-06-05T10:52:02Z</time>
      </trkpt>
      <trkpt lat="48.47425" lon="7.49679">
        <ele>233.673204</ele>
        <time>2017-06-05T10:52:07Z</time>
      </trkpt>
      <trkpt lat="48.47401" lon="7.49661">
        <ele>233.04905</ele>
        <time>2017-06-05T10:52:12Z</time>
      </trkpt>
      <trkpt lat="48.47379" lon="7.49644">
        <ele>232.602884</ele>
        <time>2017-06-05T10:52:17Z</time>
      </trkpt>
      <trkpt lat="48.47359" lon="7.49629">
        <ele>232.426036</ele>
        <time>2017-06-05T10:52:22Z</time>
      </trkpt>
      <trkpt lat="48.47339" lon="7.49615">
        <ele>233.084424</ele>
        <time>2017-06-05T10:52:27Z</time>
      </trkpt>
      <trkpt lat="48.47316" lon="7.49595">
        <ele>233.122926</ele>
        <time>2017-06-05T10:52:32Z</time>
      </trkpt>
      <trkpt lat="48.47293" lon="7.49575">
        <ele>233.910208</ele>
        <time>2017-06-05T10:52:37Z</time>
      </trkpt>
      <trkpt lat="48.47269" lon="7.49557">
        <ele>233.944139</ele>
        <time>2017-06-05T10:52:42Z</time>
      </trkpt>
      <trkpt lat="48.47248" lon="7.4954">
        <ele>237.150568</ele>
        <time>2017-06-05T10:52:47Z</time>
      </trkpt>
      <trkpt lat="48.4723" lon="7.49525">
        <ele>236.408369</ele>
        <time>2017-06-05T10:52:52Z</time>
      </trkpt>
      <trkpt lat="48.47213" lon="7.4951">
        <ele>237.163519</ele>
        <time>2017-06-05T10:52:57Z</time>
      </trkpt>
      <trkpt lat="48.47192" lon="7.49497">
        <ele>237.160455</ele>
        <time>2017-06-05T10:53:02Z</time>
      </trkpt>
      <trkpt lat="48.47172" lon="7.49482">
        <ele>237.641852</ele>
        <time>2017-06-05T10:53:07Z</time>
      </trkpt>
      <trkpt lat="48.47152" lon="7.49466">
        <ele>234.567642</ele>
        <time>2017-06-05T10:53:12Z</time>
      </trkpt>
      <trkpt lat="48.47134" lon="7.49452">
        <ele>233.255023</ele>
        <time>2017-06-05T10:53:17Z</time>
      </trkpt>
      <trkpt lat="48.47118" lon="7.49437">
        <ele>234.101872</ele>
        <time>2017-06-05T10:53:22Z</time>
      </trkpt>
      <trkpt lat="48.47104" lon="7.49423">
        <ele>233.634117</ele>
        <time>2017-06-05T10:53:27Z</time>
      </trkpt>
      <trkpt lat="48.47084" lon="7.49406">
        <ele>234.778119</ele>
        <time>2017-06-05T10:53:32Z</time>
      </trkpt>
      <trkpt lat="48.4706" lon="7.49389">
        <ele>234.991057</ele>
        <time>2017-06-05T10:53:37Z</time>
      </trkpt>
      <trkpt lat="48.4704" lon="7.49371">
        <ele>233.894239</ele>
        <time>2017-06-05T10:53:42Z</time>
      </trkpt>
      <trkpt lat="48.47019" lon="7.49357">
        <ele>234.462887</ele>
        <time>2017-06-05T10:53:47Z</time>
      </trkpt>
      <trkpt lat="48.46994" lon="7.49339">
        <ele>234.498467</ele>
        <time>2017-06-05T10:53:52Z</time>
      </trkpt>
      <trkpt lat="48.46967" lon="7.49318">
        <ele>232.110665</ele>
        <time>2017-06-05T10:53:57Z</time>
      </trkpt>
      <trkpt lat="48.46939" lon="7.49298">
        <ele>233.940922</ele>
        <time>2017-06-05T10:54:02Z</time>
      </trkpt>
      <trkpt lat="48.46911" lon="7.49277">
        <ele>233.616806</ele>
        <time>2017-06-05T10:54:07Z</time>
      </trkpt>
      <trkpt lat="48.46883" lon="7.49254">
        <ele>233.119965</ele>
        <time>2017-06-05T10:54:12Z</time>
      </trkpt>
      <trkpt lat="48.46852" lon="7.49238">
        <ele>239.989418</ele>
        <time>2017-06-05T10:54:17Z</time>
      </trkpt>
      <trkpt lat="48.46818" lon="7.49218">
        <ele>245.097789</ele>
        <time>2017-06-05T10:54:22Z</time>
      </trkpt>
      <trkpt lat="48.4679" lon="7.49191">
        <ele>243.593631</ele>
        <time>2017-06-05T10:54:27Z</time>
      </trkpt>
      <trkpt lat="48.46767" lon="7.49169">
        <ele>240.650486</ele>
        <time>2017-06-05T10:54:32Z</time>
      </trkpt>
      <trkpt lat="48.46743" lon="7.4915">
        <ele>237.789185</ele>
        <time>2017-06-05T10:54:37Z</time>
      </trkpt>
      <trkpt lat="48.46719" lon="7.49126">
        <ele>234.668695</ele>
        <time>2017-06-05T10:54:42Z</time>
      </trkpt>
      <trkpt lat="48.46697" lon="7.49108">
        <ele>232.076498</ele>
        <time>2017-06-05T10:54:47Z</time>
      </trkpt>
      <trkpt lat="48.46675" lon="7.49092">
        <ele>232.469237</ele>
        <time>2017-06-05T10:54:52Z</time>
      </trkpt>
      <trkpt lat="48.46652" lon="7.49074">
        <ele>232.59804</ele>
        <time>2017-06-05T10:54:57Z</time>
      </trkpt>
      <trkpt lat="48.46628" lon="7.49056">
        <ele>231.978412</ele>
        <time>2017-06-05T10:55:02Z</time>
      </trkpt>
      <trkpt lat="48.46605" lon="7.49037">
        <ele>231.45008</ele>
        <time>2017-06-05T10:55:07Z</time>
      </trkpt>
      <trkpt lat="48.46585" lon="7.49018">
        <ele>232.423714</ele>
        <time>2017-06-05T10:55:12Z</time>
      </trkpt>
      <trkpt lat="48.46563" lon="7.49001">
        <ele>232.730618</ele>
        <time>2017-06-05T10:55:17Z</time>
      </trkpt>
      <trkpt lat="48.46541" lon="7.48985">
        <ele>235.187456</ele>
        <time>2017-06-05T10:55:22Z</time>
      </trkpt>
      <trkpt lat="48.46519" lon="7.48967">
        <ele>235.408169</ele>
        <time>2017-06-05T10:55:27Z</time>
      </trkpt>
      <trkpt lat="48.46498" lon="7.4895">
        <ele>234.400592</ele>
        <time>2017-06-05T10:55:32Z</time>
      </trkpt>
      <trkpt lat="48.46478" lon="7.48934">
        <ele>237.040038</ele>
        <time>2017-06-05T10:55:37Z</time>
      </trkpt>
      <trkpt lat="48.46457" lon="7.4892">
        <ele>239.017466</ele>
        <time>2017-06-05T10:55:42Z</time>
      </trkpt>
      <trkpt lat="48.46435" lon="7.48902">
        <ele>237.832665</ele>
        <time>2017-06-05T10:55:47Z</time>
      </trkpt>
      <trkpt lat="48.46411" lon="7.48882">
        <ele>237.127887</ele>
        <time>2017-06-05T10:55:52Z</time>
      </trkpt>
      <trkpt lat="48.46385" lon="7.48862">
        <ele>236.241048</ele>
        <time>2017-06-05T10:55:57Z</time>
      </trkpt>
      <trkpt lat="48.46361" lon="7.48847">
        <ele>238.694191</ele>
        <time>2017-06-05T10:56:02Z</time>
      </trkpt>
      <trkpt lat="48.46337" lon="7.48831">
        <ele>239.655074</ele>
        <time>2017-06-05T10:56:07Z</time>
      </trkpt>
      <trkpt lat="48.46316" lon="7.48816">
        <ele>244.358736</ele>
        <time>2017-06-05T10:56:12Z</time>
      </trkpt>
      <trkpt lat="48.463" lon="7.48802">
        <ele>243.889331</ele>
        <time>2017-06-05T10:56:17Z</time>
      </trkpt>
      <trkpt lat="48.4628" lon="7.48786">
        <ele>243.63139</ele>
        <time>2017-06-05T10:56:22Z</time>
      </trkpt>
      <trkpt lat="48.46257" lon="7.48769">
        <ele>244.59739</ele>
        <time>2017-06-05T10:56:27Z</time>
      </trkpt>
      <trkpt lat="48.46236" lon="7.48751">
        <ele>244.910711</ele>
        <time>2017-06-05T10:56:32Z</time>
      </trkpt>
      <trkpt lat="48.46216" lon="7.48733">
        <ele>244.566682</ele>
        <time>2017-06-05T10:56:37Z</time>
      </trkpt>
      <trkpt lat="48.46194" lon="7.48709">
        <ele>240.88307</ele>
        <time>2017-06-05T10:56:42Z</time>
      </trkpt>
      <trkpt lat="48.46175" lon="7.48704">
        <ele>237.190022</ele>
        <time>2017-06-05T10:56:47Z</time>
      </trkpt>
      <trkpt lat="48.46167" lon="7.48732">
        <ele>232.925431</ele>
        <time>2017-06-05T10:56:52Z</time>
      </trkpt>
      <trkpt lat="48.46155" lon="7.48751">
        <ele>230.59023</ele>
        <time>2017-06-05T10:56:57Z</time>
      </trkpt>
      <trkpt lat="48.46141" lon="7.48744">
        <ele>230.649112</ele>
        <time>2017-06-05T10:57:02Z</time>
      </trkpt>
      <trkpt lat="48.46123" lon="7.48725">
        <ele>238.174903</ele>
        <time>2017-06-05T10:57:07Z</time>
      </trkpt>
      <trkpt lat="48.46097" lon="7.48707">
        <ele>231.752291</ele>
        <time>2017-06-05T10:57:12Z</time>
      </trkpt>
      <trkpt lat="48.46068" lon="7.48702">
        <ele>227.508864</ele>
        <time>2017-06-05T10:57:17Z</time>
      </trkpt>
      <trkpt lat="48.46052" lon="7.48683">
        <ele>228.009687</ele>
        <time>2017-06-05T10:57:22Z</time>
      </trkpt>
      <trkpt lat="48.46043" lon="7.48664">
        <ele>229.718769</ele>
        <time>2017-06-05T10:57:27Z</time>
      </trkpt>
      <trkpt lat="48.46031" lon="7.48643">
        <ele>231.06846</ele>
        <time>2017-06-05T10:57:32Z</time>
      </trkpt>
      <trkpt lat="48.46023" lon="7.48622">
        <ele>232.033756</ele>
        <time>2017-06-05T10:57:37Z</time>
      </trkpt>
      <trkpt lat="48.46028" lon="7.48599">
        <ele>232.15761</ele>
        <time>2017-06-05T10:57:42Z</time>
      </trkpt>
      <trkpt lat="48.46035" lon="7.48579">
        <ele>233.380205</ele>
        <time>2017-06-05T10:57:47Z</time>
      </trkpt>
      <trkpt lat="48.46034" lon="7.48571">
        <ele>232.022338</ele>
        <time>2017-06-05T10:57:54Z</time>
      </trkpt>
      <trkpt lat="48.46029" lon="7.48562">
        <ele>232.545927</ele>
        <time>2017-06-05T10:57:59Z</time>
      </trkpt>
      <trkpt lat="48.46032" lon="7.48569">
        <ele>229.690455</ele>
        <time>2017-06-05T11:01:19Z</time>
      </trkpt>
      <trkpt lat="48.46031" lon="7.48586">
        <ele>224.354751</ele>
        <time>2017-06-05T11:01:24Z</time>
      </trkpt>
      <trkpt lat="48.46028" lon="7.48603">
        <ele>224.638389</ele>
        <time>2017-06-05T11:01:29Z</time>
      </trkpt>
      <trkpt lat="48.46027" lon="7.48623">
        <ele>223.035994</ele>
        <time>2017-06-05T11:01:34Z</time>
      </trkpt>
      <trkpt lat="48.46026" lon="7.48637">
        <ele>226.798356</ele>
        <time>2017-06-05T11:01:39Z</time>
      </trkpt>
      <trkpt lat="48.46031" lon="7.48647">
        <ele>229.264197</ele>
        <time>2017-06-05T11:01:44Z</time>
      </trkpt>
      <trkpt lat="48.46042" lon="7.48675">
        <ele>229.004019</ele>
        <time>2017-06-05T11:01:49Z</time>
      </trkpt>
      <trkpt lat="48.46055" lon="7.487">
        <ele>230.816613</ele>
        <time>2017-06-05T11:01:54Z</time>
      </trkpt>
      <trkpt lat="48.4606" lon="7.48717">
        <ele>230.811604</ele>
        <time>2017-06-05T11:01:59Z</time>
      </trkpt>
      <trkpt lat="48.46045" lon="7.48748">
        <ele>224.945394</ele>
        <time>2017-06-05T11:02:04Z</time>
      </trkpt>
      <trkpt lat="48.46028" lon="7.48784">
        <ele>221.397426</ele>
        <time>2017-06-05T11:02:09Z</time>
      </trkpt>
      <trkpt lat="48.46018" lon="7.48804">
        <ele>219.988572</ele>
        <time>2017-06-05T11:02:14Z</time>
      </trkpt>
      <trkpt lat="48.46006" lon="7.48827">
        <ele>219.410106</ele>
        <time>2017-06-05T11:02:19Z</time>
      </trkpt>
      <trkpt lat="48.45992" lon="7.48852">
        <ele>220.228533</ele>
        <time>2017-06-05T11:02:24Z</time>
      </trkpt>
      <trkpt lat="48.45979" lon="7.48874">
        <ele>220.22128</ele>
        <time>2017-06-05T11:02:29Z</time>
      </trkpt>
      <trkpt lat="48.45966" lon="7.489">
        <ele>219.062844</ele>
        <time>2017-06-05T11:02:34Z</time>
      </trkpt>
      <trkpt lat="48.4595" lon="7.4893">
        <ele>221.542265</ele>
        <time>2017-06-05T11:02:39Z</time>
      </trkpt>
      <trkpt lat="48.45937" lon="7.4896">
        <ele>223.459865</ele>
        <time>2017-06-05T11:02:44Z</time>
      </trkpt>
      <trkpt lat="48.45924" lon="7.48988">
        <ele>223.136666</ele>
        <time>2017-06-05T11:02:49Z</time>
      </trkpt>
      <trkpt lat="48.45915" lon="7.49019">
        <ele>224.007905</ele>
        <time>2017-06-05T11:02:54Z</time>
      </trkpt>
      <trkpt lat="48.45916" lon="7.4905">
        <ele>226.269177</ele>
        <time>2017-06-05T11:02:59Z</time>
      </trkpt>
      <trkpt lat="48.45929" lon="7.49067">
        <ele>228.878525</ele>
        <time>2017-06-05T11:03:04Z</time>
      </trkpt>
      <trkpt lat="48.4593" lon="7.49082">
        <ele>227.199533</ele>
        <time>2017-06-05T11:03:09Z</time>
      </trkpt>
      <trkpt lat="48.45924" lon="7.49112">
        <ele>225.26813</ele>
        <time>2017-06-05T11:03:14Z</time>
      </trkpt>
      <trkpt lat="48.45918" lon="7.49145">
        <ele>223.59619</ele>
        <time>2017-06-05T11:03:19Z</time>
      </trkpt>
      <trkpt lat="48.45904" lon="7.49168">
        <ele>222.836642</ele>
        <time>2017-06-05T11:03:24Z</time>
      </trkpt>
      <trkpt lat="48.45887" lon="7.49182">
        <ele>222.033908</ele>
        <time>2017-06-05T11:03:29Z</time>
      </trkpt>
      <trkpt lat="48.45872" lon="7.49199">
        <ele>221.586142</ele>
        <time>2017-06-05T11:03:34Z</time>
      </trkpt>
      <trkpt lat="48.45865" lon="7.49208">
        <ele>221.82299</ele>
        <time>2017-06-05T11:03:39Z</time>
      </trkpt>
      <trkpt lat="48.4586" lon="7.4922">
        <ele>222.985781</ele>
        <time>2017-06-05T11:03:55Z</time>
      </trkpt>
      <trkpt lat="48.45856" lon="7.49234">
        <ele>225.818483</ele>
        <time>2017-06-05T11:04:00Z</time>
      </trkpt>
      <trkpt lat="48.45847" lon="7.49247">
        <ele>223.325405</ele>
        <time>2017-06-05T11:04:05Z</time>
      </trkpt>
      <trkpt lat="48.45831" lon="7.4926">
        <ele>222.522949</ele>
        <time>2017-06-05T11:04:10Z</time>
      </trkpt>
      <trkpt lat="48.45818" lon="7.49285">
        <ele>221.941309</ele>
        <time>2017-06-05T11:04:15Z</time>
      </trkpt>
      <trkpt lat="48.45807" lon="7.49308">
        <ele>225.759608</ele>
        <time>2017-06-05T11:04:20Z</time>
      </trkpt>
      <trkpt lat="48.45798" lon="7.49333">
        <ele>226.856992</ele>
        <time>2017-06-05T11:04:25Z</time>
      </trkpt>
      <trkpt lat="48.45786" lon="7.49362">
        <ele>228.118471</ele>
        <time>2017-06-05T11:04:30Z</time>
      </trkpt>
      <trkpt lat="48.45773" lon="7.49393">
        <ele>230.124051</ele>
        <time>2017-06-05T11:04:35Z</time>
      </trkpt>
      <trkpt lat="48.45763" lon="7.4942">
        <ele>231.394662</ele>
        <time>2017-06-05T11:04:40Z</time>
      </trkpt>
      <trkpt lat="48.4576" lon="7.4945">
        <ele>238.259515</ele>
        <time>2017-06-05T11:04:45Z</time>
      </trkpt>
      <trkpt lat="48.4576" lon="7.49477">
        <ele>236.52006</ele>
        <time>2017-06-05T11:04:50Z</time>
      </trkpt>
      <trkpt lat="48.45759" lon="7.49505">
        <ele>233.374696</ele>
        <time>2017-06-05T11:04:55Z</time>
      </trkpt>
      <trkpt lat="48.45756" lon="7.49539">
        <ele>226.353065</ele>
        <time>2017-06-05T11:05:00Z</time>
      </trkpt>
      <trkpt lat="48.45741" lon="7.49567">
        <ele>225.192306</ele>
        <time>2017-06-05T11:05:05Z</time>
      </trkpt>
      <trkpt lat="48.45727" lon="7.49598">
        <ele>221.483697</ele>
        <time>2017-06-05T11:05:10Z</time>
      </trkpt>
      <trkpt lat="48.45718" lon="7.49635">
        <ele>221.297025</ele>
        <time>2017-06-05T11:05:15Z</time>
      </trkpt>
      <trkpt lat="48.4571" lon="7.4967">
        <ele>220.279925</ele>
        <time>2017-06-05T11:05:20Z</time>
      </trkpt>
      <trkpt lat="48.45701" lon="7.49706">
        <ele>220.841967</ele>
        <time>2017-06-05T11:05:25Z</time>
      </trkpt>
      <trkpt lat="48.45689" lon="7.49739">
        <ele>221.620166</ele>
        <time>2017-06-05T11:05:30Z</time>
      </trkpt>
      <trkpt lat="48.4567" lon="7.49765">
        <ele>220.75824</ele>
        <time>2017-06-05T11:05:35Z</time>
      </trkpt>
      <trkpt lat="48.4565" lon="7.4979">
        <ele>220.553961</ele>
        <time>2017-06-05T11:05:40Z</time>
      </trkpt>
      <trkpt lat="48.4563" lon="7.49809">
        <ele>219.917107</ele>
        <time>2017-06-05T11:05:45Z</time>
      </trkpt>
      <trkpt lat="48.45608" lon="7.49831">
        <ele>216.459657</ele>
        <time>2017-06-05T11:05:50Z</time>
      </trkpt>
      <trkpt lat="48.45587" lon="7.4986">
        <ele>217.172937</ele>
        <time>2017-06-05T11:05:55Z</time>
      </trkpt>
      <trkpt lat="48.45567" lon="7.49893">
        <ele>218.150397</ele>
        <time>2017-06-05T11:06:00Z</time>
      </trkpt>
      <trkpt lat="48.4555" lon="7.49933">
        <ele>218.427576</ele>
        <time>2017-06-05T11:06:05Z</time>
      </trkpt>
      <trkpt lat="48.45532" lon="7.4997">
        <ele>218.440911</ele>
        <time>2017-06-05T11:06:10Z</time>
      </trkpt>
      <trkpt lat="48.45516" lon="7.50001">
        <ele>216.044658</ele>
        <time>2017-06-05T11:06:15Z</time>
      </trkpt>
      <trkpt lat="48.45499" lon="7.50034">
        <ele>215.798618</ele>
        <time>2017-06-05T11:06:20Z</time>
      </trkpt>
      <trkpt lat="48.45479" lon="7.50064">
        <ele>215.946219</ele>
        <time>2017-06-05T11:06:25Z</time>
      </trkpt>
      <trkpt lat="48.45454" lon="7.50087">
        <ele>213.800654</ele>
        <time>2017-06-05T11:06:30Z</time>
      </trkpt>
      <trkpt lat="48.45431" lon="7.5011">
        <ele>213.238686</ele>
        <time>2017-06-05T11:06:35Z</time>
      </trkpt>
      <trkpt lat="48.45411" lon="7.5014">
        <ele>216.19867</ele>
        <time>2017-06-05T11:06:40Z</time>
      </trkpt>
      <trkpt lat="48.4539" lon="7.5017">
        <ele>214.759143</ele>
        <time>2017-06-05T11:06:45Z</time>
      </trkpt>
      <trkpt lat="48.45363" lon="7.50194">
        <ele>214.102493</ele>
        <time>2017-06-05T11:06:50Z</time>
      </trkpt>
      <trkpt lat="48.45339" lon="7.50218">
        <ele>213.541167</ele>
        <time>2017-06-05T11:06:55Z</time>
      </trkpt>
      <trkpt lat="48.45316" lon="7.50241">
        <ele>212.235849</ele>
        <time>2017-06-05T11:07:00Z</time>
      </trkpt>
      <trkpt lat="48.45294" lon="7.50246">
        <ele>211.210862</ele>
        <time>2017-06-05T11:07:05Z</time>
      </trkpt>
      <trkpt lat="48.45277" lon="7.5024">
        <ele>214.73205</ele>
        <time>2017-06-05T11:07:10Z</time>
      </trkpt>
      <trkpt lat="48.45261" lon="7.5026">
        <ele>215.775857</ele>
        <time>2017-06-05T11:07:15Z</time>
      </trkpt>
      <trkpt lat="48.45245" lon="7.50289">
        <ele>215.362434</ele>
        <time>2017-06-05T11:07:20Z</time>
      </trkpt>
      <trkpt lat="48.45223" lon="7.50314">
        <ele>212.915757</ele>
        <time>2017-06-05T11:07:25Z</time>
      </trkpt>
      <trkpt lat="48.45194" lon="7.50322">
        <ele>211.606032</ele>
        <time>2017-06-05T11:07:30Z</time>
      </trkpt>
      <trkpt lat="48.45161" lon="7.50325">
        <ele>209.020006</ele>
        <time>2017-06-05T11:07:35Z</time>
      </trkpt>
      <trkpt lat="48.45131" lon="7.50327">
        <ele>208.021787</ele>
        <time>2017-06-05T11:07:40Z</time>
      </trkpt>
      <trkpt lat="48.45105" lon="7.50331">
        <ele>209.537139</ele>
        <time>2017-06-05T11:07:45Z</time>
      </trkpt>
      <trkpt lat="48.45098" lon="7.50365">
        <ele>211.425837</ele>
        <time>2017-06-05T11:07:50Z</time>
      </trkpt>
      <trkpt lat="48.45097" lon="7.50409">
        <ele>212.224849</ele>
        <time>2017-06-05T11:07:55Z</time>
      </trkpt>
      <trkpt lat="48.45102" lon="7.50451">
        <ele>216.860959</ele>
        <time>2017-06-05T11:08:00Z</time>
      </trkpt>
      <trkpt lat="48.451" lon="7.5049">
        <ele>218.715558</ele>
        <time>2017-06-05T11:08:05Z</time>
      </trkpt>
      <trkpt lat="48.45086" lon="7.50524">
        <ele>215.1844</ele>
        <time>2017-06-05T11:08:10Z</time>
      </trkpt>
      <trkpt lat="48.4507" lon="7.50542">
        <ele>214.736668</ele>
        <time>2017-06-05T11:08:15Z</time>
      </trkpt>
      <trkpt lat="48.45062" lon="7.50573">
        <ele>212.805797</ele>
        <time>2017-06-05T11:08:20Z</time>
      </trkpt>
      <trkpt lat="48.45066" lon="7.50609">
        <ele>213.358133</ele>
        <time>2017-06-05T11:08:25Z</time>
      </trkpt>
      <trkpt lat="48.45068" lon="7.5062">
        <ele>213.575312</ele>
        <time>2017-06-05T11:08:30Z</time>
      </trkpt>
      <trkpt lat="48.45067" lon="7.50646">
        <ele>223.086442</ele>
        <time>2017-06-05T11:08:36Z</time>
      </trkpt>
      <trkpt lat="48.45072" lon="7.50709">
        <ele>228.456415</ele>
        <time>2017-06-05T11:08:41Z</time>
      </trkpt>
      <trkpt lat="48.45078" lon="7.50746">
        <ele>223.56694</ele>
        <time>2017-06-05T11:08:46Z</time>
      </trkpt>
      <trkpt lat="48.45087" lon="7.50773">
        <ele>221.722077</ele>
        <time>2017-06-05T11:08:51Z</time>
      </trkpt>
      <trkpt lat="48.45089" lon="7.50808">
        <ele>215.725331</ele>
        <time>2017-06-05T11:08:56Z</time>
      </trkpt>
      <trkpt lat="48.4508" lon="7.50845">
        <ele>214.137664</ele>
        <time>2017-06-05T11:09:01Z</time>
      </trkpt>
      <trkpt lat="48.45069" lon="7.50883">
        <ele>211.797611</ele>
        <time>2017-06-05T11:09:06Z</time>
      </trkpt>
      <trkpt lat="48.4506" lon="7.50916">
        <ele>212.104526</ele>
        <time>2017-06-05T11:09:11Z</time>
      </trkpt>
      <trkpt lat="48.45053" lon="7.50946">
        <ele>212.986566</ele>
        <time>2017-06-05T11:09:16Z</time>
      </trkpt>
      <trkpt lat="48.45045" lon="7.50979">
        <ele>212.636107</ele>
        <time>2017-06-05T11:09:21Z</time>
      </trkpt>
      <trkpt lat="48.45033" lon="7.51012">
        <ele>210.607386</ele>
        <time>2017-06-05T11:09:26Z</time>
      </trkpt>
      <trkpt lat="48.45014" lon="7.51035">
        <ele>208.171409</ele>
        <time>2017-06-05T11:09:31Z</time>
      </trkpt>
      <trkpt lat="48.44995" lon="7.51054">
        <ele>206.881423</ele>
        <time>2017-06-05T11:09:36Z</time>
      </trkpt>
      <trkpt lat="48.4498" lon="7.51059">
        <ele>205.567822</ele>
        <time>2017-06-05T11:09:41Z</time>
      </trkpt>
      <trkpt lat="48.44963" lon="7.51048">
        <ele>207.994503</ele>
        <time>2017-06-05T11:09:46Z</time>
      </trkpt>
      <trkpt lat="48.44949" lon="7.51054">
        <ele>208.264431</ele>
        <time>2017-06-05T11:09:51Z</time>
      </trkpt>
      <trkpt lat="48.4494" lon="7.51088">
        <ele>210.064684</ele>
        <time>2017-06-05T11:09:56Z</time>
      </trkpt>
      <trkpt lat="48.44928" lon="7.51129">
        <ele>209.962688</ele>
        <time>2017-06-05T11:10:01Z</time>
      </trkpt>
      <trkpt lat="48.44918" lon="7.51172">
        <ele>210.215833</ele>
        <time>2017-06-05T11:10:06Z</time>
      </trkpt>
      <trkpt lat="48.44907" lon="7.51209">
        <ele>209.854035</ele>
        <time>2017-06-05T11:10:11Z</time>
      </trkpt>
      <trkpt lat="48.44894" lon="7.51244">
        <ele>207.908929</ele>
        <time>2017-06-05T11:10:16Z</time>
      </trkpt>
      <trkpt lat="48.4488" lon="7.5128">
        <ele>208.114238</ele>
        <time>2017-06-05T11:10:21Z</time>
      </trkpt>
      <trkpt lat="48.44866" lon="7.51313">
        <ele>206.740282</ele>
        <time>2017-06-05T11:10:26Z</time>
      </trkpt>
      <trkpt lat="48.44855" lon="7.51343">
        <ele>205.945387</ele>
        <time>2017-06-05T11:10:31Z</time>
      </trkpt>
      <trkpt lat="48.44846" lon="7.51376">
        <ele>206.911542</ele>
        <time>2017-06-05T11:10:36Z</time>
      </trkpt>
      <trkpt lat="48.44839" lon="7.51407">
        <ele>207.224227</ele>
        <time>2017-06-05T11:10:41Z</time>
      </trkpt>
      <trkpt lat="48.44833" lon="7.51435">
        <ele>207.36754</ele>
        <time>2017-06-05T11:10:46Z</time>
      </trkpt>
      <trkpt lat="48.44824" lon="7.51462">
        <ele>209.392965</ele>
        <time>2017-06-05T11:10:51Z</time>
      </trkpt>
      <trkpt lat="48.44816" lon="7.5149">
        <ele>207.2006</ele>
        <time>2017-06-05T11:10:56Z</time>
      </trkpt>
      <trkpt lat="48.4481" lon="7.51515">
        <ele>207.828231</ele>
        <time>2017-06-05T11:11:01Z</time>
      </trkpt>
      <trkpt lat="48.44804" lon="7.51539">
        <ele>205.557258</ele>
        <time>2017-06-05T11:11:06Z</time>
      </trkpt>
      <trkpt lat="48.44786" lon="7.51544">
        <ele>205.555619</ele>
        <time>2017-06-05T11:11:11Z</time>
      </trkpt>
      <trkpt lat="48.44774" lon="7.51561">
        <ele>208.107784</ele>
        <time>2017-06-05T11:11:16Z</time>
      </trkpt>
      <trkpt lat="48.44772" lon="7.51593">
        <ele>205.137034</ele>
        <time>2017-06-05T11:11:21Z</time>
      </trkpt>
      <trkpt lat="48.4477" lon="7.51628">
        <ele>203.175015</ele>
        <time>2017-06-05T11:11:26Z</time>
      </trkpt>
      <trkpt lat="48.44767" lon="7.51664">
        <ele>204.769384</ele>
        <time>2017-06-05T11:11:31Z</time>
      </trkpt>
      <trkpt lat="48.44763" lon="7.51696">
        <ele>205.355197</ele>
        <time>2017-06-05T11:11:36Z</time>
      </trkpt>
      <trkpt lat="48.44752" lon="7.51729">
        <ele>205.483408</ele>
        <time>2017-06-05T11:11:41Z</time>
      </trkpt>
      <trkpt lat="48.44745" lon="7.5176">
        <ele>206.454784</ele>
        <time>2017-06-05T11:11:46Z</time>
      </trkpt>
      <trkpt lat="48.44742" lon="7.51791">
        <ele>205.548139</ele>
        <time>2017-06-05T11:11:51Z</time>
      </trkpt>
      <trkpt lat="48.44738" lon="7.51826">
        <ele>204.901943</ele>
        <time>2017-06-05T11:11:56Z</time>
      </trkpt>
      <trkpt lat="48.44735" lon="7.51861">
        <ele>205.661805</ele>
        <time>2017-06-05T11:12:01Z</time>
      </trkpt>
      <trkpt lat="48.44733" lon="7.51891">
        <ele>206.16533</ele>
        <time>2017-06-05T11:12:06Z</time>
      </trkpt>
      <trkpt lat="48.44734" lon="7.51925">
        <ele>210.013456</ele>
        <time>2017-06-05T11:12:11Z</time>
      </trkpt>
      <trkpt lat="48.44738" lon="7.51962">
        <ele>212.06248</ele>
        <time>2017-06-05T11:12:16Z</time>
      </trkpt>
      <trkpt lat="48.44741" lon="7.51993">
        <ele>213.764392</ele>
        <time>2017-06-05T11:12:21Z</time>
      </trkpt>
      <trkpt lat="48.44744" lon="7.52022">
        <ele>213.796075</ele>
        <time>2017-06-05T11:12:26Z</time>
      </trkpt>
      <trkpt lat="48.44741" lon="7.52047">
        <ele>211.050107</ele>
        <time>2017-06-05T11:12:31Z</time>
      </trkpt>
      <trkpt lat="48.44743" lon="7.52039">
        <ele>209.871626</ele>
        <time>2017-06-05T11:12:36Z</time>
      </trkpt>
      <trkpt lat="48.44741" lon="7.52017">
        <ele>208.301147</ele>
        <time>2017-06-05T11:12:41Z</time>
      </trkpt>
      <trkpt lat="48.4474" lon="7.51991">
        <ele>207.127888</ele>
        <time>2017-06-05T11:12:46Z</time>
      </trkpt>
      <trkpt lat="48.44736" lon="7.51965">
        <ele>209.333446</ele>
        <time>2017-06-05T11:12:51Z</time>
      </trkpt>
      <trkpt lat="48.44735" lon="7.51937">
        <ele>208.821851</ele>
        <time>2017-06-05T11:12:56Z</time>
      </trkpt>
      <trkpt lat="48.44734" lon="7.51911">
        <ele>207.648772</ele>
        <time>2017-06-05T11:13:01Z</time>
      </trkpt>
      <trkpt lat="48.44734" lon="7.51889">
        <ele>207.575227</ele>
        <time>2017-06-05T11:13:06Z</time>
      </trkpt>
      <trkpt lat="48.44746" lon="7.51878">
        <ele>207.523965</ele>
        <time>2017-06-05T11:13:11Z</time>
      </trkpt>
      <trkpt lat="48.44771" lon="7.51877">
        <ele>208.330187</ele>
        <time>2017-06-05T11:13:16Z</time>
      </trkpt>
      <trkpt lat="48.44799" lon="7.51876">
        <ele>207.825302</ele>
        <time>2017-06-05T11:13:21Z</time>
      </trkpt>
      <trkpt lat="48.44821" lon="7.51872">
        <ele>207.528311</ele>
        <time>2017-06-05T11:13:26Z</time>
      </trkpt>
      <trkpt lat="48.44834" lon="7.5187">
        <ele>208.175579</ele>
        <time>2017-06-05T11:13:31Z</time>
      </trkpt>
      <trkpt lat="48.44846" lon="7.5187">
        <ele>209.654053</ele>
        <time>2017-06-05T11:13:36Z</time>
      </trkpt>
      <trkpt lat="48.44866" lon="7.51871">
        <ele>210.184451</ele>
        <time>2017-06-05T11:13:41Z</time>
      </trkpt>
      <trkpt lat="48.44885" lon="7.51869">
        <ele>210.628135</ele>
        <time>2017-06-05T11:13:46Z</time>
      </trkpt>
      <trkpt lat="48.44901" lon="7.51873">
        <ele>209.740761</ele>
        <time>2017-06-05T11:13:51Z</time>
      </trkpt>
      <trkpt lat="48.44919" lon="7.51877">
        <ele>208.286642</ele>
        <time>2017-06-05T11:13:56Z</time>
      </trkpt>
      <trkpt lat="48.44942" lon="7.51882">
        <ele>208.601703</ele>
        <time>2017-06-05T11:14:01Z</time>
      </trkpt>
      <trkpt lat="48.44965" lon="7.51888">
        <ele>208.346082</ele>
        <time>2017-06-05T11:14:06Z</time>
      </trkpt>
      <trkpt lat="48.4499" lon="7.51895">
        <ele>208.929751</ele>
        <time>2017-06-05T11:14:11Z</time>
      </trkpt>
      <trkpt lat="48.45014" lon="7.51908">
        <ele>208.450753</ele>
        <time>2017-06-05T11:14:16Z</time>
      </trkpt>
      <trkpt lat="48.45037" lon="7.51919">
        <ele>208.542648</ele>
        <time>2017-06-05T11:14:21Z</time>
      </trkpt>
      <trkpt lat="48.45058" lon="7.51926">
        <ele>210.346957</ele>
        <time>2017-06-05T11:14:26Z</time>
      </trkpt>
      <trkpt lat="48.45077" lon="7.51933">
        <ele>210.563758</ele>
        <time>2017-06-05T11:14:31Z</time>
      </trkpt>
      <trkpt lat="48.45096" lon="7.51938">
        <ele>208.54354</ele>
        <time>2017-06-05T11:14:36Z</time>
      </trkpt>
      <trkpt lat="48.4512" lon="7.51944">
        <ele>208.288649</ele>
        <time>2017-06-05T11:14:41Z</time>
      </trkpt>
      <trkpt lat="48.45137" lon="7.51964">
        <ele>207.219316</ele>
        <time>2017-06-05T11:14:46Z</time>
      </trkpt>
      <trkpt lat="48.45149" lon="7.51991">
        <ele>208.375033</ele>
        <time>2017-06-05T11:14:51Z</time>
      </trkpt>
      <trkpt lat="48.45141" lon="7.52018">
        <ele>208.995261</ele>
        <time>2017-06-05T11:14:56Z</time>
      </trkpt>
      <trkpt lat="48.4513" lon="7.52052">
        <ele>207.146876</ele>
        <time>2017-06-05T11:15:01Z</time>
      </trkpt>
      <trkpt lat="48.45122" lon="7.52086">
        <ele>207.543784</ele>
        <time>2017-06-05T11:15:06Z</time>
      </trkpt>
      <trkpt lat="48.45114" lon="7.52116">
        <ele>207.022808</ele>
        <time>2017-06-05T11:15:11Z</time>
      </trkpt>
      <trkpt lat="48.4511" lon="7.52136">
        <ele>205.989049</ele>
        <time>2017-06-05T11:15:16Z</time>
      </trkpt>
      <trkpt lat="48.45101" lon="7.52169">
        <ele>206.299417</ele>
        <time>2017-06-05T11:15:21Z</time>
      </trkpt>
      <trkpt lat="48.45093" lon="7.52205">
        <ele>205.377601</ele>
        <time>2017-06-05T11:15:26Z</time>
      </trkpt>
      <trkpt lat="48.45086" lon="7.52242">
        <ele>205.381958</ele>
        <time>2017-06-05T11:15:31Z</time>
      </trkpt>
      <trkpt lat="48.45079" lon="7.5228">
        <ele>205.473278</ele>
        <time>2017-06-05T11:15:36Z</time>
      </trkpt>
      <trkpt lat="48.45072" lon="7.5232">
        <ele>205.651573</ele>
        <time>2017-06-05T11:15:41Z</time>
      </trkpt>
      <trkpt lat="48.45068" lon="7.52361">
        <ele>205.354121</ele>
        <time>2017-06-05T11:15:46Z</time>
      </trkpt>
      <trkpt lat="48.45063" lon="7.52401">
        <ele>205.623534</ele>
        <time>2017-06-05T11:15:51Z</time>
      </trkpt>
      <trkpt lat="48.45058" lon="7.52441">
        <ele>204.577983</ele>
        <time>2017-06-05T11:15:56Z</time>
      </trkpt>
      <trkpt lat="48.45055" lon="7.5248">
        <ele>204.1941</ele>
        <time>2017-06-05T11:16:01Z</time>
      </trkpt>
      <trkpt lat="48.45051" lon="7.52504">
        <ele>204.918361</ele>
        <time>2017-06-05T11:16:06Z</time>
      </trkpt>
      <trkpt lat="48.45048" lon="7.52525">
        <ele>205.468946</ele>
        <time>2017-06-05T11:16:11Z</time>
      </trkpt>
      <trkpt lat="48.45044" lon="7.52563">
        <ele>206.40442</ele>
        <time>2017-06-05T11:16:16Z</time>
      </trkpt>
      <trkpt lat="48.45041" lon="7.52599">
        <ele>205.84721</ele>
        <time>2017-06-05T11:16:21Z</time>
      </trkpt>
      <trkpt lat="48.45037" lon="7.52637">
        <ele>206.034546</ele>
        <time>2017-06-05T11:16:26Z</time>
      </trkpt>
      <trkpt lat="48.45032" lon="7.52676">
        <ele>206.308886</ele>
        <time>2017-06-05T11:16:31Z</time>
      </trkpt>
      <trkpt lat="48.45029" lon="7.52716">
        <ele>204.606758</ele>
        <time>2017-06-05T11:16:36Z</time>
      </trkpt>
      <trkpt lat="48.45025" lon="7.52759">
        <ele>204.484488</ele>
        <time>2017-06-05T11:16:41Z</time>
      </trkpt>
      <trkpt lat="48.45021" lon="7.52802">
        <ele>204.362379</ele>
        <time>2017-06-05T11:16:46Z</time>
      </trkpt>
      <trkpt lat="48.45017" lon="7.52847">
        <ele>202.921401</ele>
        <time>2017-06-05T11:16:51Z</time>
      </trkpt>
      <trkpt lat="48.45013" lon="7.5289">
        <ele>202.142069</ele>
        <time>2017-06-05T11:16:56Z</time>
      </trkpt>
      <trkpt lat="48.45009" lon="7.52933">
        <ele>202.020451</ele>
        <time>2017-06-05T11:17:01Z</time>
      </trkpt>
      <trkpt lat="48.45007" lon="7.52972">
        <ele>201.729074</ele>
        <time>2017-06-05T11:17:06Z</time>
      </trkpt>
      <trkpt lat="48.45004" lon="7.53009">
        <ele>203.327472</ele>
        <time>2017-06-05T11:17:11Z</time>
      </trkpt>
      <trkpt lat="48.44999" lon="7.53043">
        <ele>201.845551</ele>
        <time>2017-06-05T11:17:16Z</time>
      </trkpt>
      <trkpt lat="48.44994" lon="7.53078">
        <ele>203.923975</ele>
        <time>2017-06-05T11:17:21Z</time>
      </trkpt>
      <trkpt lat="48.44987" lon="7.53114">
        <ele>203.84431</ele>
        <time>2017-06-05T11:17:26Z</time>
      </trkpt>
      <trkpt lat="48.44981" lon="7.53143">
        <ele>203.330084</ele>
        <time>2017-06-05T11:17:31Z</time>
      </trkpt>
      <trkpt lat="48.44977" lon="7.53164">
        <ele>205.945358</ele>
        <time>2017-06-05T11:17:36Z</time>
      </trkpt>
      <trkpt lat="48.44973" lon="7.5318">
        <ele>204.652682</ele>
        <time>2017-06-05T11:17:41Z</time>
      </trkpt>
      <trkpt lat="48.44969" lon="7.53194">
        <ele>204.679018</ele>
        <time>2017-06-05T11:17:46Z</time>
      </trkpt>
      <trkpt lat="48.44965" lon="7.53207">
        <ele>203.212503</ele>
        <time>2017-06-05T11:17:51Z</time>
      </trkpt>
      <trkpt lat="48.4496" lon="7.53227">
        <ele>202.180732</ele>
        <time>2017-06-05T11:17:56Z</time>
      </trkpt>
      <trkpt lat="48.44955" lon="7.53251">
        <ele>201.319027</ele>
        <time>2017-06-05T11:18:01Z</time>
      </trkpt>
      <trkpt lat="48.44949" lon="7.53276">
        <ele>202.698626</ele>
        <time>2017-06-05T11:18:06Z</time>
      </trkpt>
      <trkpt lat="48.44943" lon="7.53305">
        <ele>203.590778</ele>
        <time>2017-06-05T11:18:11Z</time>
      </trkpt>
      <trkpt lat="48.44936" lon="7.53331">
        <ele>203.560723</ele>
        <time>2017-06-05T11:18:16Z</time>
      </trkpt>
      <trkpt lat="48.44931" lon="7.53359">
        <ele>204.456878</ele>
        <time>2017-06-05T11:18:21Z</time>
      </trkpt>
      <trkpt lat="48.44925" lon="7.53391">
        <ele>205.523187</ele>
        <time>2017-06-05T11:18:26Z</time>
      </trkpt>
      <trkpt lat="48.44919" lon="7.53417">
        <ele>206.990084</ele>
        <time>2017-06-05T11:18:31Z</time>
      </trkpt>
      <trkpt lat="48.44914" lon="7.53436">
        <ele>208.770559</ele>
        <time>2017-06-05T11:18:36Z</time>
      </trkpt>
      <trkpt lat="48.44908" lon="7.53463">
        <ele>207.334913</ele>
        <time>2017-06-05T11:18:41Z</time>
      </trkpt>
      <trkpt lat="48.44899" lon="7.53492">
        <ele>206.64004</ele>
        <time>2017-06-05T11:18:46Z</time>
      </trkpt>
      <trkpt lat="48.44891" lon="7.53515">
        <ele>204.191409</ele>
        <time>2017-06-05T11:18:51Z</time>
      </trkpt>
      <trkpt lat="48.44881" lon="7.53535">
        <ele>205.695843</ele>
        <time>2017-06-05T11:18:56Z</time>
      </trkpt>
      <trkpt lat="48.44868" lon="7.53564">
        <ele>204.728793</ele>
        <time>2017-06-05T11:19:01Z</time>
      </trkpt>
      <trkpt lat="48.44856" lon="7.53595">
        <ele>204.684181</ele>
        <time>2017-06-05T11:19:06Z</time>
      </trkpt>
      <trkpt lat="48.44847" lon="7.53627">
        <ele>205.656623</ele>
        <time>2017-06-05T11:19:11Z</time>
      </trkpt>
      <trkpt lat="48.44841" lon="7.53657">
        <ele>208.791049</ele>
        <time>2017-06-05T11:19:16Z</time>
      </trkpt>
      <trkpt lat="48.44836" lon="7.53688">
        <ele>211.267994</ele>
        <time>2017-06-05T11:19:21Z</time>
      </trkpt>
      <trkpt lat="48.44831" lon="7.53717">
        <ele>213.65802</ele>
        <time>2017-06-05T11:19:26Z</time>
      </trkpt>
      <trkpt lat="48.44826" lon="7.53747">
        <ele>214.071644</ele>
        <time>2017-06-05T11:19:31Z</time>
      </trkpt>
      <trkpt lat="48.44821" lon="7.53781">
        <ele>212.505098</ele>
        <time>2017-06-05T11:19:36Z</time>
      </trkpt>
      <trkpt lat="48.44819" lon="7.53815">
        <ele>211.120236</ele>
        <time>2017-06-05T11:19:41Z</time>
      </trkpt>
      <trkpt lat="48.44818" lon="7.53848">
        <ele>213.386462</ele>
        <time>2017-06-05T11:19:46Z</time>
      </trkpt>
      <trkpt lat="48.44816" lon="7.53881">
        <ele>214.817405</ele>
        <time>2017-06-05T11:19:51Z</time>
      </trkpt>
      <trkpt lat="48.44814" lon="7.53913">
        <ele>211.93989</ele>
        <time>2017-06-05T11:19:56Z</time>
      </trkpt>
      <trkpt lat="48.44813" lon="7.53946">
        <ele>212.713452</ele>
        <time>2017-06-05T11:20:01Z</time>
      </trkpt>
      <trkpt lat="48.44813" lon="7.53982">
        <ele>210.191774</ele>
        <time>2017-06-05T11:20:06Z</time>
      </trkpt>
      <trkpt lat="48.44811" lon="7.54017">
        <ele>211.04881</ele>
        <time>2017-06-05T11:20:11Z</time>
      </trkpt>
      <trkpt lat="48.4481" lon="7.54049">
        <ele>211.165098</ele>
        <time>2017-06-05T11:20:16Z</time>
      </trkpt>
      <trkpt lat="48.4481" lon="7.54083">
        <ele>209.962608</ele>
        <time>2017-06-05T11:20:21Z</time>
      </trkpt>
      <trkpt lat="48.44806" lon="7.54118">
        <ele>209.232448</ele>
        <time>2017-06-05T11:20:26Z</time>
      </trkpt>
      <trkpt lat="48.44805" lon="7.54157">
        <ele>207.542969</ele>
        <time>2017-06-05T11:20:31Z</time>
      </trkpt>
      <trkpt lat="48.44809" lon="7.54194">
        <ele>204.723819</ele>
        <time>2017-06-05T11:20:36Z</time>
      </trkpt>
      <trkpt lat="48.44815" lon="7.54235">
        <ele>205.072345</ele>
        <time>2017-06-05T11:20:41Z</time>
      </trkpt>
      <trkpt lat="48.44823" lon="7.54273">
        <ele>205.337682</ele>
        <time>2017-06-05T11:20:46Z</time>
      </trkpt>
      <trkpt lat="48.44834" lon="7.5431">
        <ele>204.291775</ele>
        <time>2017-06-05T11:20:51Z</time>
      </trkpt>
      <trkpt lat="48.44845" lon="7.54343">
        <ele>205.139052</ele>
        <time>2017-06-05T11:20:56Z</time>
      </trkpt>
      <trkpt lat="48.44853" lon="7.54375">
        <ele>204.308108</ele>
        <time>2017-06-05T11:21:01Z</time>
      </trkpt>
      <trkpt lat="48.4486" lon="7.54411">
        <ele>203.651432</ele>
        <time>2017-06-05T11:21:06Z</time>
      </trkpt>
      <trkpt lat="48.44867" lon="7.54448">
        <ele>203.826597</ele>
        <time>2017-06-05T11:21:11Z</time>
      </trkpt>
      <trkpt lat="48.44871" lon="7.54489">
        <ele>203.336898</ele>
        <time>2017-06-05T11:21:16Z</time>
      </trkpt>
      <trkpt lat="48.44877" lon="7.54529">
        <ele>202.938158</ele>
        <time>2017-06-05T11:21:21Z</time>
      </trkpt>
      <trkpt lat="48.44882" lon="7.54568">
        <ele>202.361646</ele>
        <time>2017-06-05T11:21:26Z</time>
      </trkpt>
      <trkpt lat="48.44887" lon="7.54606">
        <ele>202.446527</ele>
        <time>2017-06-05T11:21:31Z</time>
      </trkpt>
      <trkpt lat="48.44889" lon="7.54637">
        <ele>206.128353</ele>
        <time>2017-06-05T11:21:36Z</time>
      </trkpt>
      <trkpt lat="48.44889" lon="7.54665">
        <ele>207.390947</ele>
        <time>2017-06-05T11:21:41Z</time>
      </trkpt>
      <trkpt lat="48.44891" lon="7.54687">
        <ele>208.308858</ele>
        <time>2017-06-05T11:21:46Z</time>
      </trkpt>
      <trkpt lat="48.44896" lon="7.54699">
        <ele>206.648084</ele>
        <time>2017-06-05T11:21:51Z</time>
      </trkpt>
      <trkpt lat="48.44901" lon="7.54701">
        <ele>207.098499</ele>
        <time>2017-06-05T11:21:56Z</time>
      </trkpt>
      <trkpt lat="48.44906" lon="7.54707">
        <ele>207.810268</ele>
        <time>2017-06-05T11:22:14Z</time>
      </trkpt>
      <trkpt lat="48.44917" lon="7.54728">
        <ele>209.938195</ele>
        <time>2017-06-05T11:22:19Z</time>
      </trkpt>
      <trkpt lat="48.44922" lon="7.54752">
        <ele>207.655672</ele>
        <time>2017-06-05T11:22:24Z</time>
      </trkpt>
      <trkpt lat="48.44936" lon="7.54769">
        <ele>213.173358</ele>
        <time>2017-06-05T11:22:29Z</time>
      </trkpt>
      <trkpt lat="48.44957" lon="7.54774">
        <ele>214.891844</ele>
        <time>2017-06-05T11:22:34Z</time>
      </trkpt>
      <trkpt lat="48.44983" lon="7.54774">
        <ele>214.383912</ele>
        <time>2017-06-05T11:22:39Z</time>
      </trkpt>
      <trkpt lat="48.45008" lon="7.54775">
        <ele>213.124006</ele>
        <time>2017-06-05T11:22:44Z</time>
      </trkpt>
      <trkpt lat="48.4503" lon="7.54771">
        <ele>211.33401</ele>
        <time>2017-06-05T11:22:49Z</time>
      </trkpt>
      <trkpt lat="48.4505" lon="7.54758">
        <ele>215.298779</ele>
        <time>2017-06-05T11:22:54Z</time>
      </trkpt>
      <trkpt lat="48.45077" lon="7.54753">
        <ele>214.442846</ele>
        <time>2017-06-05T11:22:59Z</time>
      </trkpt>
      <trkpt lat="48.45099" lon="7.54754">
        <ele>215.243039</ele>
        <time>2017-06-05T11:23:04Z</time>
      </trkpt>
      <trkpt lat="48.45123" lon="7.54762">
        <ele>214.419269</ele>
        <time>2017-06-05T11:23:09Z</time>
      </trkpt>
      <trkpt lat="48.45142" lon="7.54768">
        <ele>215.299247</ele>
        <time>2017-06-05T11:23:14Z</time>
      </trkpt>
      <trkpt lat="48.45164" lon="7.54758">
        <ele>213.070471</ele>
        <time>2017-06-05T11:23:19Z</time>
      </trkpt>
      <trkpt lat="48.45183" lon="7.5474">
        <ele>210.97282</ele>
        <time>2017-06-05T11:23:24Z</time>
      </trkpt>
      <trkpt lat="48.45201" lon="7.54722">
        <ele>210.099372</ele>
        <time>2017-06-05T11:23:29Z</time>
      </trkpt>
      <trkpt lat="48.45217" lon="7.54713">
        <ele>207.594372</ele>
        <time>2017-06-05T11:23:34Z</time>
      </trkpt>
      <trkpt lat="48.45232" lon="7.54729">
        <ele>206.835461</ele>
        <time>2017-06-05T11:23:39Z</time>
      </trkpt>
      <trkpt lat="48.45248" lon="7.54752">
        <ele>205.8547</ele>
        <time>2017-06-05T11:23:44Z</time>
      </trkpt>
      <trkpt lat="48.45266" lon="7.54775">
        <ele>207.119258</ele>
        <time>2017-06-05T11:23:49Z</time>
      </trkpt>
      <trkpt lat="48.45283" lon="7.54799">
        <ele>207.722632</ele>
        <time>2017-06-05T11:23:54Z</time>
      </trkpt>
      <trkpt lat="48.45299" lon="7.54821">
        <ele>208.060942</ele>
        <time>2017-06-05T11:23:59Z</time>
      </trkpt>
      <trkpt lat="48.45319" lon="7.5484">
        <ele>207.091982</ele>
        <time>2017-06-05T11:24:04Z</time>
      </trkpt>
      <trkpt lat="48.4534" lon="7.54855">
        <ele>207.358586</ele>
        <time>2017-06-05T11:24:09Z</time>
      </trkpt>
      <trkpt lat="48.4536" lon="7.54871">
        <ele>206.78594</ele>
        <time>2017-06-05T11:24:14Z</time>
      </trkpt>
      <trkpt lat="48.45385" lon="7.54877">
        <ele>205.967275</ele>
        <time>2017-06-05T11:24:19Z</time>
      </trkpt>
      <trkpt lat="48.45414" lon="7.54883">
        <ele>204.586046</ele>
        <time>2017-06-05T11:24:24Z</time>
      </trkpt>
      <trkpt lat="48.45441" lon="7.5489">
        <ele>204.607041</ele>
        <time>2017-06-05T11:24:29Z</time>
      </trkpt>
      <trkpt lat="48.45468" lon="7.54898">
        <ele>204.057847</ele>
        <time>2017-06-05T11:24:34Z</time>
      </trkpt>
      <trkpt lat="48.45496" lon="7.54904">
        <ele>201.928654</ele>
        <time>2017-06-05T11:24:39Z</time>
      </trkpt>
      <trkpt lat="48.45525" lon="7.5491">
        <ele>201.296492</ele>
        <time>2017-06-05T11:24:44Z</time>
      </trkpt>
      <trkpt lat="48.45552" lon="7.54914">
        <ele>201.801284</ele>
        <time>2017-06-05T11:24:49Z</time>
      </trkpt>
      <trkpt lat="48.45575" lon="7.54917">
        <ele>203.439125</ele>
        <time>2017-06-05T11:24:54Z</time>
      </trkpt>
      <trkpt lat="48.45596" lon="7.54921">
        <ele>205.073197</ele>
        <time>2017-06-05T11:24:59Z</time>
      </trkpt>
      <trkpt lat="48.45615" lon="7.54924">
        <ele>205.689773</ele>
        <time>2017-06-05T11:25:04Z</time>
      </trkpt>
      <trkpt lat="48.45634" lon="7.54925">
        <ele>205.561845</ele>
        <time>2017-06-05T11:25:09Z</time>
      </trkpt>
      <trkpt lat="48.45655" lon="7.54924">
        <ele>204.693304</ele>
        <time>2017-06-05T11:25:14Z</time>
      </trkpt>
      <trkpt lat="48.45673" lon="7.54926">
        <ele>204.474507</ele>
        <time>2017-06-05T11:25:19Z</time>
      </trkpt>
      <trkpt lat="48.45688" lon="7.54927">
        <ele>202.667836</ele>
        <time>2017-06-05T11:25:24Z</time>
      </trkpt>
      <trkpt lat="48.45705" lon="7.54927">
        <ele>204.42535</ele>
        <time>2017-06-05T11:25:29Z</time>
      </trkpt>
      <trkpt lat="48.45721" lon="7.54929">
        <ele>204.860255</ele>
        <time>2017-06-05T11:25:34Z</time>
      </trkpt>
      <trkpt lat="48.45736" lon="7.54936">
        <ele>207.707042</ele>
        <time>2017-06-05T11:25:39Z</time>
      </trkpt>
      <trkpt lat="48.45748" lon="7.5494">
        <ele>210.197542</ele>
        <time>2017-06-05T11:25:44Z</time>
      </trkpt>
      <trkpt lat="48.45761" lon="7.54948">
        <ele>210.799018</ele>
        <time>2017-06-05T11:25:49Z</time>
      </trkpt>
      <trkpt lat="48.45775" lon="7.54958">
        <ele>208.854054</ele>
        <time>2017-06-05T11:25:54Z</time>
      </trkpt>
      <trkpt lat="48.45793" lon="7.54969">
        <ele>209.245592</ele>
        <time>2017-06-05T11:25:59Z</time>
      </trkpt>
      <trkpt lat="48.45806" lon="7.54981">
        <ele>209.451174</ele>
        <time>2017-06-05T11:26:04Z</time>
      </trkpt>
      <trkpt lat="48.4582" lon="7.54994">
        <ele>207.68063</ele>
        <time>2017-06-05T11:26:09Z</time>
      </trkpt>
      <trkpt lat="48.45834" lon="7.55008">
        <ele>208.151635</ele>
        <time>2017-06-05T11:26:14Z</time>
      </trkpt>
      <trkpt lat="48.4585" lon="7.55022">
        <ele>207.220738</ele>
        <time>2017-06-05T11:26:19Z</time>
      </trkpt>
      <trkpt lat="48.45865" lon="7.55036">
        <ele>206.285975</ele>
        <time>2017-06-05T11:26:24Z</time>
      </trkpt>
      <trkpt lat="48.45879" lon="7.55051">
        <ele>205.351271</ele>
        <time>2017-06-05T11:26:29Z</time>
      </trkpt>
      <trkpt lat="48.45895" lon="7.55068">
        <ele>205.430463</ele>
        <time>2017-06-05T11:26:34Z</time>
      </trkpt>
      <trkpt lat="48.45913" lon="7.55084">
        <ele>205.513668</ele>
        <time>2017-06-05T11:26:39Z</time>
      </trkpt>
      <trkpt lat="48.45932" lon="7.55102">
        <ele>205.775184</ele>
        <time>2017-06-05T11:26:44Z</time>
      </trkpt>
      <trkpt lat="48.45953" lon="7.55123">
        <ele>205.735868</ele>
        <time>2017-06-05T11:26:49Z</time>
      </trkpt>
      <trkpt lat="48.45975" lon="7.55145">
        <ele>205.78383</ele>
        <time>2017-06-05T11:26:54Z</time>
      </trkpt>
      <trkpt lat="48.45996" lon="7.55167">
        <ele>206.489316</ele>
        <time>2017-06-05T11:26:59Z</time>
      </trkpt>
      <trkpt lat="48.46018" lon="7.5519">
        <ele>207.286037</ele>
        <time>2017-06-05T11:27:04Z</time>
      </trkpt>
      <trkpt lat="48.46041" lon="7.55214">
        <ele>207.512666</ele>
        <time>2017-06-05T11:27:09Z</time>
      </trkpt>
      <trkpt lat="48.46065" lon="7.55236">
        <ele>208.400789</ele>
        <time>2017-06-05T11:27:14Z</time>
      </trkpt>
      <trkpt lat="48.46085" lon="7.55258">
        <ele>206.952428</ele>
        <time>2017-06-05T11:27:19Z</time>
      </trkpt>
      <trkpt lat="48.46107" lon="7.55281">
        <ele>205.595322</ele>
        <time>2017-06-05T11:27:24Z</time>
      </trkpt>
      <trkpt lat="48.46127" lon="7.55304">
        <ele>205.640258</ele>
        <time>2017-06-05T11:27:29Z</time>
      </trkpt>
      <trkpt lat="48.46149" lon="7.55325">
        <ele>205.60213</ele>
        <time>2017-06-05T11:27:34Z</time>
      </trkpt>
      <trkpt lat="48.46172" lon="7.55348">
        <ele>205.742446</ele>
        <time>2017-06-05T11:27:39Z</time>
      </trkpt>
      <trkpt lat="48.46193" lon="7.5537">
        <ele>207.197632</ele>
        <time>2017-06-05T11:27:44Z</time>
      </trkpt>
      <trkpt lat="48.46214" lon="7.55394">
        <ele>207.991606</ele>
        <time>2017-06-05T11:27:49Z</time>
      </trkpt>
      <trkpt lat="48.46232" lon="7.55414">
        <ele>208.337873</ele>
        <time>2017-06-05T11:27:54Z</time>
      </trkpt>
      <trkpt lat="48.46248" lon="7.55431">
        <ele>208.418713</ele>
        <time>2017-06-05T11:27:59Z</time>
      </trkpt>
      <trkpt lat="48.46266" lon="7.5545">
        <ele>208.76915</ele>
        <time>2017-06-05T11:28:04Z</time>
      </trkpt>
      <trkpt lat="48.46287" lon="7.5547">
        <ele>209.959389</ele>
        <time>2017-06-05T11:28:09Z</time>
      </trkpt>
      <trkpt lat="48.46306" lon="7.5549">
        <ele>211.145741</ele>
        <time>2017-06-05T11:28:14Z</time>
      </trkpt>
      <trkpt lat="48.46324" lon="7.55511">
        <ele>209.429266</ele>
        <time>2017-06-05T11:28:19Z</time>
      </trkpt>
      <trkpt lat="48.46344" lon="7.55531">
        <ele>209.301146</ele>
        <time>2017-06-05T11:28:24Z</time>
      </trkpt>
      <trkpt lat="48.46362" lon="7.55553">
        <ele>209.735277</ele>
        <time>2017-06-05T11:28:29Z</time>
      </trkpt>
      <trkpt lat="48.46375" lon="7.5557">
        <ele>208.885796</ele>
        <time>2017-06-05T11:28:34Z</time>
      </trkpt>
      <trkpt lat="48.46389" lon="7.55587">
        <ele>209.533449</ele>
        <time>2017-06-05T11:28:39Z</time>
      </trkpt>
      <trkpt lat="48.46407" lon="7.55607">
        <ele>212.783589</ele>
        <time>2017-06-05T11:28:44Z</time>
      </trkpt>
      <trkpt lat="48.46426" lon="7.55628">
        <ele>213.222087</ele>
        <time>2017-06-05T11:28:49Z</time>
      </trkpt>
      <trkpt lat="48.46441" lon="7.55646">
        <ele>212.642511</ele>
        <time>2017-06-05T11:28:54Z</time>
      </trkpt>
      <trkpt lat="48.46458" lon="7.55664">
        <ele>211.318487</ele>
        <time>2017-06-05T11:28:59Z</time>
      </trkpt>
      <trkpt lat="48.46476" lon="7.55686">
        <ele>211.844468</ele>
        <time>2017-06-05T11:29:04Z</time>
      </trkpt>
      <trkpt lat="48.46494" lon="7.55705">
        <ele>211.447598</ele>
        <time>2017-06-05T11:29:09Z</time>
      </trkpt>
      <trkpt lat="48.4651" lon="7.55721">
        <ele>211.442492</ele>
        <time>2017-06-05T11:29:14Z</time>
      </trkpt>
      <trkpt lat="48.46528" lon="7.55735">
        <ele>211.354286</ele>
        <time>2017-06-05T11:29:19Z</time>
      </trkpt>
      <trkpt lat="48.46545" lon="7.55751">
        <ele>212.097884</ele>
        <time>2017-06-05T11:29:24Z</time>
      </trkpt>
      <trkpt lat="48.46568" lon="7.55766">
        <ele>212.462041</ele>
        <time>2017-06-05T11:29:29Z</time>
      </trkpt>
      <trkpt lat="48.46591" lon="7.55786">
        <ele>213.836512</ele>
        <time>2017-06-05T11:29:34Z</time>
      </trkpt>
      <trkpt lat="48.46613" lon="7.55803">
        <ele>210.727834</ele>
        <time>2017-06-05T11:29:39Z</time>
      </trkpt>
      <trkpt lat="48.46636" lon="7.5582">
        <ele>210.522275</ele>
        <time>2017-06-05T11:29:44Z</time>
      </trkpt>
      <trkpt lat="48.4666" lon="7.55839">
        <ele>211.152632</ele>
        <time>2017-06-05T11:29:49Z</time>
      </trkpt>
      <trkpt lat="48.46684" lon="7.55855">
        <ele>210.202828</ele>
        <time>2017-06-05T11:29:54Z</time>
      </trkpt>
      <trkpt lat="48.46709" lon="7.5587">
        <ele>209.914515</ele>
        <time>2017-06-05T11:29:59Z</time>
      </trkpt>
      <trkpt lat="48.46732" lon="7.55884">
        <ele>209.535045</ele>
        <time>2017-06-05T11:30:04Z</time>
      </trkpt>
      <trkpt lat="48.46755" lon="7.559">
        <ele>208.494341</ele>
        <time>2017-06-05T11:30:09Z</time>
      </trkpt>
      <trkpt lat="48.46781" lon="7.55917">
        <ele>208.472174</ele>
        <time>2017-06-05T11:30:14Z</time>
      </trkpt>
      <trkpt lat="48.46806" lon="7.55935">
        <ele>208.450162</ele>
        <time>2017-06-05T11:30:19Z</time>
      </trkpt>
      <trkpt lat="48.4683" lon="7.5595">
        <ele>209.564304</ele>
        <time>2017-06-05T11:30:24Z</time>
      </trkpt>
      <trkpt lat="48.46853" lon="7.55966">
        <ele>209.272713</ele>
        <time>2017-06-05T11:30:29Z</time>
      </trkpt>
      <trkpt lat="48.46876" lon="7.55983">
        <ele>209.068477</ele>
        <time>2017-06-05T11:30:34Z</time>
      </trkpt>
      <trkpt lat="48.469" lon="7.55996">
        <ele>208.602681</ele>
        <time>2017-06-05T11:30:39Z</time>
      </trkpt>
      <trkpt lat="48.4692" lon="7.5601">
        <ele>208.698815</ele>
        <time>2017-06-05T11:30:44Z</time>
      </trkpt>
      <trkpt lat="48.46941" lon="7.56026">
        <ele>209.63088</ele>
        <time>2017-06-05T11:30:49Z</time>
      </trkpt>
      <trkpt lat="48.46964" lon="7.5604">
        <ele>210.658517</ele>
        <time>2017-06-05T11:30:54Z</time>
      </trkpt>
      <trkpt lat="48.46986" lon="7.56054">
        <ele>210.189063</ele>
        <time>2017-06-05T11:30:59Z</time>
      </trkpt>
      <trkpt lat="48.47009" lon="7.56068">
        <ele>209.719723</ele>
        <time>2017-06-05T11:31:04Z</time>
      </trkpt>
      <trkpt lat="48.47029" lon="7.56082">
        <ele>210.564982</ele>
        <time>2017-06-05T11:31:09Z</time>
      </trkpt>
      <trkpt lat="48.47052" lon="7.56097">
        <ele>211.501716</ele>
        <time>2017-06-05T11:31:14Z</time>
      </trkpt>
      <trkpt lat="48.47076" lon="7.5611">
        <ele>210.37961</ele>
        <time>2017-06-05T11:31:19Z</time>
      </trkpt>
      <trkpt lat="48.471" lon="7.56126">
        <ele>211.586589</ele>
        <time>2017-06-05T11:31:24Z</time>
      </trkpt>
      <trkpt lat="48.47119" lon="7.56137">
        <ele>211.417788</ele>
        <time>2017-06-05T11:31:29Z</time>
      </trkpt>
      <trkpt lat="48.47135" lon="7.56148">
        <ele>213.873831</ele>
        <time>2017-06-05T11:31:34Z</time>
      </trkpt>
      <trkpt lat="48.4715" lon="7.56158">
        <ele>216.991311</ele>
        <time>2017-06-05T11:31:39Z</time>
      </trkpt>
      <trkpt lat="48.47167" lon="7.56162">
        <ele>215.455068</ele>
        <time>2017-06-05T11:31:44Z</time>
      </trkpt>
      <trkpt lat="48.47184" lon="7.56172">
        <ele>212.204784</ele>
        <time>2017-06-05T11:31:49Z</time>
      </trkpt>
      <trkpt lat="48.47204" lon="7.56181">
        <ele>211.204626</ele>
        <time>2017-06-05T11:31:54Z</time>
      </trkpt>
      <trkpt lat="48.47229" lon="7.56193">
        <ele>210.744719</ele>
        <time>2017-06-05T11:31:59Z</time>
      </trkpt>
      <trkpt lat="48.4725" lon="7.56204">
        <ele>211.41652</ele>
        <time>2017-06-05T11:32:04Z</time>
      </trkpt>
      <trkpt lat="48.47271" lon="7.56214">
        <ele>212.001169</ele>
        <time>2017-06-05T11:32:09Z</time>
      </trkpt>
      <trkpt lat="48.47289" lon="7.56222">
        <ele>211.567153</ele>
        <time>2017-06-05T11:32:14Z</time>
      </trkpt>
      <trkpt lat="48.47298" lon="7.56232">
        <ele>210.667642</ele>
        <time>2017-06-05T11:32:19Z</time>
      </trkpt>
      <trkpt lat="48.47304" lon="7.56242">
        <ele>211.078378</ele>
        <time>2017-06-05T11:32:24Z</time>
      </trkpt>
      <trkpt lat="48.47309" lon="7.56247">
        <ele>210.300039</ele>
        <time>2017-06-05T11:32:44Z</time>
      </trkpt>
      <trkpt lat="48.47324" lon="7.56266">
        <ele>208.975468</ele>
        <time>2017-06-05T11:32:49Z</time>
      </trkpt>
      <trkpt lat="48.47345" lon="7.5628">
        <ele>209.822238</ele>
        <time>2017-06-05T11:32:54Z</time>
      </trkpt>
      <trkpt lat="48.47366" lon="7.56295">
        <ele>211.505016</ele>
        <time>2017-06-05T11:32:59Z</time>
      </trkpt>
      <trkpt lat="48.47386" lon="7.56306">
        <ele>214.897712</ele>
        <time>2017-06-05T11:33:04Z</time>
      </trkpt>
      <trkpt lat="48.47407" lon="7.56318">
        <ele>216.406177</ele>
        <time>2017-06-05T11:33:09Z</time>
      </trkpt>
      <trkpt lat="48.47429" lon="7.5633">
        <ele>217.827487</ele>
        <time>2017-06-05T11:33:14Z</time>
      </trkpt>
      <trkpt lat="48.47453" lon="7.5634">
        <ele>217.190083</ele>
        <time>2017-06-05T11:33:19Z</time>
      </trkpt>
      <trkpt lat="48.47479" lon="7.56348">
        <ele>215.155396</ele>
        <time>2017-06-05T11:33:24Z</time>
      </trkpt>
      <trkpt lat="48.475" lon="7.56355">
        <ele>215.566586</ele>
        <time>2017-06-05T11:33:29Z</time>
      </trkpt>
      <trkpt lat="48.47522" lon="7.56363">
        <ele>216.726537</ele>
        <time>2017-06-05T11:33:34Z</time>
      </trkpt>
      <trkpt lat="48.4754" lon="7.56371">
        <ele>216.950681</ele>
        <time>2017-06-05T11:33:39Z</time>
      </trkpt>
      <trkpt lat="48.47556" lon="7.56375">
        <ele>213.261239</ele>
        <time>2017-06-05T11:33:44Z</time>
      </trkpt>
      <trkpt lat="48.47572" lon="7.56383">
        <ele>214.799841</ele>
        <time>2017-06-05T11:33:49Z</time>
      </trkpt>
      <trkpt lat="48.47595" lon="7.56392">
        <ele>207.703829</ele>
        <time>2017-06-05T11:33:54Z</time>
      </trkpt>
      <trkpt lat="48.47619" lon="7.56408">
        <ele>208.822147</ele>
        <time>2017-06-05T11:33:59Z</time>
      </trkpt>
      <trkpt lat="48.47632" lon="7.56383">
        <ele>205.837551</ele>
        <time>2017-06-05T11:34:04Z</time>
      </trkpt>
      <trkpt lat="48.47632" lon="7.56346">
        <ele>205.361503</ele>
        <time>2017-06-05T11:34:09Z</time>
      </trkpt>
      <trkpt lat="48.47632" lon="7.56306">
        <ele>204.715331</ele>
        <time>2017-06-05T11:34:14Z</time>
      </trkpt>
      <trkpt lat="48.4763" lon="7.56266">
        <ele>202.567668</ele>
        <time>2017-06-05T11:34:19Z</time>
      </trkpt>
      <trkpt lat="48.4763" lon="7.56226">
        <ele>203.323347</ele>
        <time>2017-06-05T11:34:24Z</time>
      </trkpt>
      <trkpt lat="48.47629" lon="7.56187">
        <ele>202.673316</ele>
        <time>2017-06-05T11:34:29Z</time>
      </trkpt>
      <trkpt lat="48.47629" lon="7.56146">
        <ele>202.684866</ele>
        <time>2017-06-05T11:34:34Z</time>
      </trkpt>
      <trkpt lat="48.47631" lon="7.56106">
        <ele>202.966822</ele>
        <time>2017-06-05T11:34:39Z</time>
      </trkpt>
      <trkpt lat="48.47632" lon="7.56068">
        <ele>203.24462</ele>
        <time>2017-06-05T11:34:44Z</time>
      </trkpt>
      <trkpt lat="48.47633" lon="7.56037">
        <ele>202.552802</ele>
        <time>2017-06-05T11:34:49Z</time>
      </trkpt>
      <trkpt lat="48.47635" lon="7.56007">
        <ele>203.44565</ele>
        <time>2017-06-05T11:34:54Z</time>
      </trkpt>
      <trkpt lat="48.47638" lon="7.55975">
        <ele>204.255661</ele>
        <time>2017-06-05T11:34:59Z</time>
      </trkpt>
      <trkpt lat="48.47639" lon="7.55936">
        <ele>203.040829</ele>
        <time>2017-06-05T11:35:04Z</time>
      </trkpt>
      <trkpt lat="48.47641" lon="7.55899">
        <ele>202.749223</ele>
        <time>2017-06-05T11:35:09Z</time>
      </trkpt>
      <trkpt lat="48.47637" lon="7.55862">
        <ele>204.154691</ele>
        <time>2017-06-05T11:35:14Z</time>
      </trkpt>
      <trkpt lat="48.47636" lon="7.55827">
        <ele>205.260536</ele>
        <time>2017-06-05T11:35:19Z</time>
      </trkpt>
      <trkpt lat="48.47636" lon="7.55796">
        <ele>204.569363</ele>
        <time>2017-06-05T11:35:24Z</time>
      </trkpt>
      <trkpt lat="48.47634" lon="7.55762">
        <ele>203.429355</ele>
        <time>2017-06-05T11:35:29Z</time>
      </trkpt>
      <trkpt lat="48.47627" lon="7.55724">
        <ele>203.2464</ele>
        <time>2017-06-05T11:35:34Z</time>
      </trkpt>
      <trkpt lat="48.47619" lon="7.55688">
        <ele>203.146433</ele>
        <time>2017-06-05T11:35:39Z</time>
      </trkpt>
      <trkpt lat="48.47609" lon="7.55656">
        <ele>201.723583</ele>
        <time>2017-06-05T11:35:44Z</time>
      </trkpt>
      <trkpt lat="48.47602" lon="7.55619">
        <ele>202.285352</ele>
        <time>2017-06-05T11:35:49Z</time>
      </trkpt>
      <trkpt lat="48.47598" lon="7.55579">
        <ele>201.362879</ele>
        <time>2017-06-05T11:35:54Z</time>
      </trkpt>
      <trkpt lat="48.47594" lon="7.55536">
        <ele>202.42075</ele>
        <time>2017-06-05T11:35:59Z</time>
      </trkpt>
      <trkpt lat="48.47593" lon="7.55494">
        <ele>202.25592</ele>
        <time>2017-06-05T11:36:04Z</time>
      </trkpt>
      <trkpt lat="48.4759" lon="7.55455">
        <ele>202.261215</ele>
        <time>2017-06-05T11:36:09Z</time>
      </trkpt>
      <trkpt lat="48.47589" lon="7.55414">
        <ele>204.995547</ele>
        <time>2017-06-05T11:36:14Z</time>
      </trkpt>
      <trkpt lat="48.47588" lon="7.55373">
        <ele>204.261128</ele>
        <time>2017-06-05T11:36:19Z</time>
      </trkpt>
      <trkpt lat="48.47589" lon="7.5533">
        <ele>204.937063</ele>
        <time>2017-06-05T11:36:24Z</time>
      </trkpt>
      <trkpt lat="48.47586" lon="7.55293">
        <ele>204.372853</ele>
        <time>2017-06-05T11:36:29Z</time>
      </trkpt>
      <trkpt lat="48.47585" lon="7.55255">
        <ele>203.064445</ele>
        <time>2017-06-05T11:36:34Z</time>
      </trkpt>
      <trkpt lat="48.47582" lon="7.55211">
        <ele>203.379204</ele>
        <time>2017-06-05T11:36:39Z</time>
      </trkpt>
      <trkpt lat="48.47578" lon="7.55167">
        <ele>202.945455</ele>
        <time>2017-06-05T11:36:44Z</time>
      </trkpt>
      <trkpt lat="48.47575" lon="7.55123">
        <ele>203.260551</ele>
        <time>2017-06-05T11:36:49Z</time>
      </trkpt>
      <trkpt lat="48.47573" lon="7.55076">
        <ele>201.995726</ele>
        <time>2017-06-05T11:36:54Z</time>
      </trkpt>
      <trkpt lat="48.47568" lon="7.5503">
        <ele>202.132576</ele>
        <time>2017-06-05T11:36:59Z</time>
      </trkpt>
      <trkpt lat="48.47565" lon="7.54985">
        <ele>203.766955</ele>
        <time>2017-06-05T11:37:04Z</time>
      </trkpt>
      <trkpt lat="48.4756" lon="7.54941">
        <ele>203.986881</ele>
        <time>2017-06-05T11:37:09Z</time>
      </trkpt>
      <trkpt lat="48.4755" lon="7.54898">
        <ele>203.183865</ele>
        <time>2017-06-05T11:37:14Z</time>
      </trkpt>
      <trkpt lat="48.47539" lon="7.54854">
        <ele>203.038227</ele>
        <time>2017-06-05T11:37:19Z</time>
      </trkpt>
      <trkpt lat="48.47529" lon="7.54813">
        <ele>203.158415</ele>
        <time>2017-06-05T11:37:24Z</time>
      </trkpt>
      <trkpt lat="48.47522" lon="7.54776">
        <ele>205.128809</ele>
        <time>2017-06-05T11:37:29Z</time>
      </trkpt>
      <trkpt lat="48.47516" lon="7.5474">
        <ele>206.533595</ele>
        <time>2017-06-05T11:37:34Z</time>
      </trkpt>
      <trkpt lat="48.47512" lon="7.54702">
        <ele>206.537026</ele>
        <time>2017-06-05T11:37:39Z</time>
      </trkpt>
      <trkpt lat="48.47511" lon="7.54666">
        <ele>207.559244</ele>
        <time>2017-06-05T11:37:44Z</time>
      </trkpt>
      <trkpt lat="48.4751" lon="7.54636">
        <ele>208.929824</ele>
        <time>2017-06-05T11:37:49Z</time>
      </trkpt>
      <trkpt lat="48.4751" lon="7.54609">
        <ele>208.502992</ele>
        <time>2017-06-05T11:37:54Z</time>
      </trkpt>
      <trkpt lat="48.47509" lon="7.54575">
        <ele>207.458013</ele>
        <time>2017-06-05T11:37:59Z</time>
      </trkpt>
      <trkpt lat="48.47506" lon="7.5454">
        <ele>206.321673</ele>
        <time>2017-06-05T11:38:04Z</time>
      </trkpt>
      <trkpt lat="48.47503" lon="7.545">
        <ele>205.494448</ele>
        <time>2017-06-05T11:38:09Z</time>
      </trkpt>
      <trkpt lat="48.47501" lon="7.54462">
        <ele>204.845864</ele>
        <time>2017-06-05T11:38:14Z</time>
      </trkpt>
      <trkpt lat="48.47498" lon="7.54429">
        <ele>205.951441</ele>
        <time>2017-06-05T11:38:19Z</time>
      </trkpt>
      <trkpt lat="48.47496" lon="7.54394">
        <ele>206.312868</ele>
        <time>2017-06-05T11:38:24Z</time>
      </trkpt>
      <trkpt lat="48.47489" lon="7.5436">
        <ele>207.052817</ele>
        <time>2017-06-05T11:38:29Z</time>
      </trkpt>
      <trkpt lat="48.47481" lon="7.54332">
        <ele>208.889654</ele>
        <time>2017-06-05T11:38:34Z</time>
      </trkpt>
      <trkpt lat="48.47482" lon="7.54306">
        <ele>209.95643</ele>
        <time>2017-06-05T11:38:39Z</time>
      </trkpt>
      <trkpt lat="48.47488" lon="7.54282">
        <ele>211.567551</ele>
        <time>2017-06-05T11:38:44Z</time>
      </trkpt>
      <trkpt lat="48.47494" lon="7.54263">
        <ele>212.778146</ele>
        <time>2017-06-05T11:38:49Z</time>
      </trkpt>
      <trkpt lat="48.475" lon="7.54249">
        <ele>214.341288</ele>
        <time>2017-06-05T11:38:54Z</time>
      </trkpt>
      <trkpt lat="48.47508" lon="7.54237">
        <ele>213.928388</ele>
        <time>2017-06-05T11:38:59Z</time>
      </trkpt>
      <trkpt lat="48.4751" lon="7.5423">
        <ele>215.082094</ele>
        <time>2017-06-05T11:39:40Z</time>
      </trkpt>
      <trkpt lat="48.47519" lon="7.5421">
        <ele>214.238598</ele>
        <time>2017-06-05T11:39:45Z</time>
      </trkpt>
      <trkpt lat="48.47525" lon="7.54171">
        <ele>211.240958</ele>
        <time>2017-06-05T11:39:50Z</time>
      </trkpt>
      <trkpt lat="48.47518" lon="7.54118">
        <ele>207.77322</ele>
        <time>2017-06-05T11:39:55Z</time>
      </trkpt>
      <trkpt lat="48.47521" lon="7.54064">
        <ele>207.104948</ele>
        <time>2017-06-05T11:40:00Z</time>
      </trkpt>
      <trkpt lat="48.47531" lon="7.54019">
        <ele>206.010294</ele>
        <time>2017-06-05T11:40:05Z</time>
      </trkpt>
      <trkpt lat="48.47538" lon="7.53976">
        <ele>206.404223</ele>
        <time>2017-06-05T11:40:10Z</time>
      </trkpt>
      <trkpt lat="48.47546" lon="7.5394">
        <ele>207.233232</ele>
        <time>2017-06-05T11:40:15Z</time>
      </trkpt>
      <trkpt lat="48.47553" lon="7.53903">
        <ele>207.975382</ele>
        <time>2017-06-05T11:40:20Z</time>
      </trkpt>
      <trkpt lat="48.47561" lon="7.53866">
        <ele>208.060453</ele>
        <time>2017-06-05T11:40:25Z</time>
      </trkpt>
      <trkpt lat="48.47569" lon="7.53829">
        <ele>208.145653</ele>
        <time>2017-06-05T11:40:30Z</time>
      </trkpt>
      <trkpt lat="48.47578" lon="7.53789">
        <ele>208.805728</ele>
        <time>2017-06-05T11:40:35Z</time>
      </trkpt>
      <trkpt lat="48.47585" lon="7.53754">
        <ele>208.229482</ele>
        <time>2017-06-05T11:40:40Z</time>
      </trkpt>
      <trkpt lat="48.47579" lon="7.53721">
        <ele>207.743701</ele>
        <time>2017-06-05T11:40:45Z</time>
      </trkpt>
      <trkpt lat="48.47554" lon="7.53697">
        <ele>206.67317</ele>
        <time>2017-06-05T11:40:50Z</time>
      </trkpt>
      <trkpt lat="48.47526" lon="7.5368">
        <ele>206.511879</ele>
        <time>2017-06-05T11:40:55Z</time>
      </trkpt>
      <trkpt lat="48.47499" lon="7.53663">
        <ele>205.87195</ele>
        <time>2017-06-05T11:41:00Z</time>
      </trkpt>
      <trkpt lat="48.47475" lon="7.53647">
        <ele>206.072283</ele>
        <time>2017-06-05T11:41:05Z</time>
      </trkpt>
      <trkpt lat="48.4745" lon="7.5363">
        <ele>205.437146</ele>
        <time>2017-06-05T11:41:10Z</time>
      </trkpt>
      <trkpt lat="48.47425" lon="7.53611">
        <ele>205.463867</ele>
        <time>2017-06-05T11:41:15Z</time>
      </trkpt>
      <trkpt lat="48.47403" lon="7.53593">
        <ele>204.26769</ele>
        <time>2017-06-05T11:41:20Z</time>
      </trkpt>
      <trkpt lat="48.47384" lon="7.53577">
        <ele>206.153189</ele>
        <time>2017-06-05T11:41:25Z</time>
      </trkpt>
      <trkpt lat="48.47363" lon="7.5356">
        <ele>205.792834</ele>
        <time>2017-06-05T11:41:30Z</time>
      </trkpt>
      <trkpt lat="48.47339" lon="7.53541">
        <ele>205.911487</ele>
        <time>2017-06-05T11:41:35Z</time>
      </trkpt>
      <trkpt lat="48.47317" lon="7.53524">
        <ele>206.208612</ele>
        <time>2017-06-05T11:41:40Z</time>
      </trkpt>
      <trkpt lat="48.47298" lon="7.53509">
        <ele>206.118336</ele>
        <time>2017-06-05T11:41:45Z</time>
      </trkpt>
      <trkpt lat="48.4728" lon="7.53496">
        <ele>205.457834</ele>
        <time>2017-06-05T11:41:50Z</time>
      </trkpt>
      <trkpt lat="48.47264" lon="7.53481">
        <ele>204.893251</ele>
        <time>2017-06-05T11:41:55Z</time>
      </trkpt>
      <trkpt lat="48.4725" lon="7.5347">
        <ele>204.593984</ele>
        <time>2017-06-05T11:42:00Z</time>
      </trkpt>
      <trkpt lat="48.47232" lon="7.53456">
        <ele>202.527809</ele>
        <time>2017-06-05T11:42:05Z</time>
      </trkpt>
      <trkpt lat="48.47214" lon="7.53443">
        <ele>202.616241</ele>
        <time>2017-06-05T11:42:10Z</time>
      </trkpt>
      <trkpt lat="48.47199" lon="7.53428">
        <ele>204.20645</ele>
        <time>2017-06-05T11:42:15Z</time>
      </trkpt>
      <trkpt lat="48.47186" lon="7.53416">
        <ele>204.74742</ele>
        <time>2017-06-05T11:42:20Z</time>
      </trkpt>
      <trkpt lat="48.47176" lon="7.53402">
        <ele>206.703197</ele>
        <time>2017-06-05T11:42:25Z</time>
      </trkpt>
      <trkpt lat="48.47164" lon="7.53388">
        <ele>208.56765</ele>
        <time>2017-06-05T11:42:30Z</time>
      </trkpt>
      <trkpt lat="48.47161" lon="7.5336">
        <ele>207.869611</ele>
        <time>2017-06-05T11:42:35Z</time>
      </trkpt>
      <trkpt lat="48.47159" lon="7.53325">
        <ele>207.398749</ele>
        <time>2017-06-05T11:42:40Z</time>
      </trkpt>
      <trkpt lat="48.47157" lon="7.53289">
        <ele>207.676624</ele>
        <time>2017-06-05T11:42:45Z</time>
      </trkpt>
      <trkpt lat="48.47154" lon="7.5325">
        <ele>207.689431</ele>
        <time>2017-06-05T11:42:50Z</time>
      </trkpt>
      <trkpt lat="48.47153" lon="7.53215">
        <ele>208.716161</ele>
        <time>2017-06-05T11:42:55Z</time>
      </trkpt>
      <trkpt lat="48.47151" lon="7.53177">
        <ele>208.158846</ele>
        <time>2017-06-05T11:43:00Z</time>
      </trkpt>
      <trkpt lat="48.4715" lon="7.53139">
        <ele>207.606105</ele>
        <time>2017-06-05T11:43:05Z</time>
      </trkpt>
      <trkpt lat="48.47148" lon="7.53099">
        <ele>206.875243</ele>
        <time>2017-06-05T11:43:10Z</time>
      </trkpt>
      <trkpt lat="48.47145" lon="7.53058">
        <ele>207.372177</ele>
        <time>2017-06-05T11:43:15Z</time>
      </trkpt>
      <trkpt lat="48.47143" lon="7.53018">
        <ele>206.641594</ele>
        <time>2017-06-05T11:43:20Z</time>
      </trkpt>
      <trkpt lat="48.47141" lon="7.52976">
        <ele>206.394664</ele>
        <time>2017-06-05T11:43:25Z</time>
      </trkpt>
      <trkpt lat="48.47138" lon="7.52931">
        <ele>207.466917</ele>
        <time>2017-06-05T11:43:30Z</time>
      </trkpt>
      <trkpt lat="48.47135" lon="7.52889">
        <ele>207.877584</ele>
        <time>2017-06-05T11:43:35Z</time>
      </trkpt>
      <trkpt lat="48.47133" lon="7.52845">
        <ele>207.544266</ele>
        <time>2017-06-05T11:43:40Z</time>
      </trkpt>
      <trkpt lat="48.4713" lon="7.52803">
        <ele>207.384833</ele>
        <time>2017-06-05T11:43:45Z</time>
      </trkpt>
      <trkpt lat="48.47129" lon="7.52762">
        <ele>208.722795</ele>
        <time>2017-06-05T11:43:50Z</time>
      </trkpt>
      <trkpt lat="48.47127" lon="7.52715">
        <ele>208.964879</ele>
        <time>2017-06-05T11:43:55Z</time>
      </trkpt>
      <trkpt lat="48.47125" lon="7.52665">
        <ele>207.449371</ele>
        <time>2017-06-05T11:44:00Z</time>
      </trkpt>
      <trkpt lat="48.47123" lon="7.52618">
        <ele>208.349128</ele>
        <time>2017-06-05T11:44:05Z</time>
      </trkpt>
      <trkpt lat="48.47121" lon="7.52576">
        <ele>208.195005</ele>
        <time>2017-06-05T11:44:10Z</time>
      </trkpt>
      <trkpt lat="48.47118" lon="7.52538">
        <ele>209.702925</ele>
        <time>2017-06-05T11:44:15Z</time>
      </trkpt>
      <trkpt lat="48.47116" lon="7.525">
        <ele>209.718233</ele>
        <time>2017-06-05T11:44:20Z</time>
      </trkpt>
      <trkpt lat="48.47114" lon="7.52457">
        <ele>208.81592</ele>
        <time>2017-06-05T11:44:25Z</time>
      </trkpt>
      <trkpt lat="48.47112" lon="7.52414">
        <ele>208.57105</ele>
        <time>2017-06-05T11:44:30Z</time>
      </trkpt>
      <trkpt lat="48.47108" lon="7.52372">
        <ele>208.983627</ele>
        <time>2017-06-05T11:44:35Z</time>
      </trkpt>
      <trkpt lat="48.47106" lon="7.52333">
        <ele>209.748111</ele>
        <time>2017-06-05T11:44:40Z</time>
      </trkpt>
      <trkpt lat="48.47105" lon="7.52296">
        <ele>209.942233</ele>
        <time>2017-06-05T11:44:45Z</time>
      </trkpt>
      <trkpt lat="48.47102" lon="7.52256">
        <ele>208.465638</ele>
        <time>2017-06-05T11:44:50Z</time>
      </trkpt>
      <trkpt lat="48.471" lon="7.52218">
        <ele>207.824592</ele>
        <time>2017-06-05T11:44:55Z</time>
      </trkpt>
      <trkpt lat="48.47098" lon="7.52179">
        <ele>208.589588</ele>
        <time>2017-06-05T11:45:00Z</time>
      </trkpt>
      <trkpt lat="48.47094" lon="7.5214">
        <ele>209.920682</ele>
        <time>2017-06-05T11:45:05Z</time>
      </trkpt>
      <trkpt lat="48.47089" lon="7.52105">
        <ele>210.76363</ele>
        <time>2017-06-05T11:45:10Z</time>
      </trkpt>
      <trkpt lat="48.47085" lon="7.52076">
        <ele>210.639201</ele>
        <time>2017-06-05T11:45:15Z</time>
      </trkpt>
      <trkpt lat="48.47081" lon="7.52051">
        <ele>212.181085</ele>
        <time>2017-06-05T11:45:20Z</time>
      </trkpt>
      <trkpt lat="48.47077" lon="7.52023">
        <ele>212.143569</ele>
        <time>2017-06-05T11:45:25Z</time>
      </trkpt>
      <trkpt lat="48.47071" lon="7.51996">
        <ele>212.101575</ele>
        <time>2017-06-05T11:45:30Z</time>
      </trkpt>
      <trkpt lat="48.47067" lon="7.5197">
        <ele>212.150961</ele>
        <time>2017-06-05T11:45:35Z</time>
      </trkpt>
      <trkpt lat="48.47064" lon="7.51943">
        <ele>212.949028</ele>
        <time>2017-06-05T11:45:40Z</time>
      </trkpt>
      <trkpt lat="48.47059" lon="7.51918">
        <ele>213.085301</ele>
        <time>2017-06-05T11:45:45Z</time>
      </trkpt>
      <trkpt lat="48.47057" lon="7.51896">
        <ele>214.235071</ele>
        <time>2017-06-05T11:45:50Z</time>
      </trkpt>
      <trkpt lat="48.47054" lon="7.51865">
        <ele>215.521666</ele>
        <time>2017-06-05T11:45:55Z</time>
      </trkpt>
      <trkpt lat="48.47052" lon="7.51835">
        <ele>215.402423</ele>
        <time>2017-06-05T11:46:00Z</time>
      </trkpt>
      <trkpt lat="48.47051" lon="7.51804">
        <ele>216.123184</ele>
        <time>2017-06-05T11:46:05Z</time>
      </trkpt>
      <trkpt lat="48.47048" lon="7.51773">
        <ele>215.917357</ele>
        <time>2017-06-05T11:46:10Z</time>
      </trkpt>
      <trkpt lat="48.47047" lon="7.51741">
        <ele>215.05431</ele>
        <time>2017-06-05T11:46:15Z</time>
      </trkpt>
      <trkpt lat="48.47044" lon="7.51711">
        <ele>216.341314</ele>
        <time>2017-06-05T11:46:20Z</time>
      </trkpt>
      <trkpt lat="48.47043" lon="7.5168">
        <ele>217.719705</ele>
        <time>2017-06-05T11:46:25Z</time>
      </trkpt>
      <trkpt lat="48.4704" lon="7.51648">
        <ele>218.920141</ele>
        <time>2017-06-05T11:46:30Z</time>
      </trkpt>
      <trkpt lat="48.47037" lon="7.51616">
        <ele>220.120667</ele>
        <time>2017-06-05T11:46:35Z</time>
      </trkpt>
      <trkpt lat="48.47035" lon="7.51586">
        <ele>221.408002</ele>
        <time>2017-06-05T11:46:40Z</time>
      </trkpt>
      <trkpt lat="48.47031" lon="7.51555">
        <ele>221.946806</ele>
        <time>2017-06-05T11:46:45Z</time>
      </trkpt>
      <trkpt lat="48.4703" lon="7.51525">
        <ele>221.919679</ele>
        <time>2017-06-05T11:46:50Z</time>
      </trkpt>
      <trkpt lat="48.47029" lon="7.51495">
        <ele>223.298556</ele>
        <time>2017-06-05T11:46:55Z</time>
      </trkpt>
      <trkpt lat="48.47028" lon="7.51468">
        <ele>224.280322</ele>
        <time>2017-06-05T11:47:00Z</time>
      </trkpt>
      <trkpt lat="48.47028" lon="7.51441">
        <ele>225.266739</ele>
        <time>2017-06-05T11:47:05Z</time>
      </trkpt>
      <trkpt lat="48.47038" lon="7.51414">
        <ele>227.55422</ele>
        <time>2017-06-05T11:47:10Z</time>
      </trkpt>
      <trkpt lat="48.47053" lon="7.51394">
        <ele>229.234563</ele>
        <time>2017-06-05T11:47:15Z</time>
      </trkpt>
      <trkpt lat="48.47065" lon="7.51376">
        <ele>230.248452</ele>
        <time>2017-06-05T11:47:20Z</time>
      </trkpt>
      <trkpt lat="48.47078" lon="7.51361">
        <ele>229.943167</ele>
        <time>2017-06-05T11:47:25Z</time>
      </trkpt>
      <trkpt lat="48.47091" lon="7.51343">
        <ele>231.705785</ele>
        <time>2017-06-05T11:47:30Z</time>
      </trkpt>
      <trkpt lat="48.47103" lon="7.51327">
        <ele>233.46384</ele>
        <time>2017-06-05T11:47:35Z</time>
      </trkpt>
      <trkpt lat="48.47109" lon="7.51308">
        <ele>234.683301</ele>
        <time>2017-06-05T11:47:40Z</time>
      </trkpt>
      <trkpt lat="48.47108" lon="7.51284">
        <ele>234.432915</ele>
        <time>2017-06-05T11:47:45Z</time>
      </trkpt>
      <trkpt lat="48.47107" lon="7.51261">
        <ele>235.588504</ele>
        <time>2017-06-05T11:47:50Z</time>
      </trkpt>
      <trkpt lat="48.47106" lon="7.5124">
        <ele>236.917501</ele>
        <time>2017-06-05T11:47:55Z</time>
      </trkpt>
      <trkpt lat="48.47106" lon="7.51222">
        <ele>236.447971</ele>
        <time>2017-06-05T11:48:00Z</time>
      </trkpt>
      <trkpt lat="48.47104" lon="7.51215">
        <ele>233.677404</ele>
        <time>2017-06-05T11:49:01Z</time>
      </trkpt>
      <trkpt lat="48.47094" lon="7.51199">
        <ele>232.650771</ele>
        <time>2017-06-05T11:49:06Z</time>
      </trkpt>
      <trkpt lat="48.47081" lon="7.51188">
        <ele>231.788266</ele>
        <time>2017-06-05T11:49:11Z</time>
      </trkpt>
      <trkpt lat="48.4707" lon="7.51178">
        <ele>231.852397</ele>
        <time>2017-06-05T11:49:16Z</time>
      </trkpt>
      <trkpt lat="48.47059" lon="7.51169">
        <ele>232.660548</ele>
        <time>2017-06-05T11:49:21Z</time>
      </trkpt>
      <trkpt lat="48.47042" lon="7.51157">
        <ele>231.524266</ele>
        <time>2017-06-05T11:49:26Z</time>
      </trkpt>
      <trkpt lat="48.47019" lon="7.51142">
        <ele>231.164179</ele>
        <time>2017-06-05T11:49:31Z</time>
      </trkpt>
      <trkpt lat="48.47" lon="7.51112">
        <ele>229.284818</ele>
        <time>2017-06-05T11:49:36Z</time>
      </trkpt>
      <trkpt lat="48.46995" lon="7.51076">
        <ele>230.044267</ele>
        <time>2017-06-05T11:49:41Z</time>
      </trkpt>
      <trkpt lat="48.4699" lon="7.51037">
        <ele>229.224581</ele>
        <time>2017-06-05T11:49:46Z</time>
      </trkpt>
      <trkpt lat="48.46991" lon="7.50997">
        <ele>232.901297</ele>
        <time>2017-06-05T11:49:51Z</time>
      </trkpt>
      <trkpt lat="48.46988" lon="7.50955">
        <ele>236.308937</ele>
        <time>2017-06-05T11:49:56Z</time>
      </trkpt>
      <trkpt lat="48.46986" lon="7.50918">
        <ele>234.352926</ele>
        <time>2017-06-05T11:50:01Z</time>
      </trkpt>
      <trkpt lat="48.46982" lon="7.50888">
        <ele>231.990359</ele>
        <time>2017-06-05T11:50:06Z</time>
      </trkpt>
      <trkpt lat="48.46979" lon="7.50863">
        <ele>230.814314</ele>
        <time>2017-06-05T11:50:11Z</time>
      </trkpt>
      <trkpt lat="48.46976" lon="7.50839">
        <ele>231.130897</ele>
        <time>2017-06-05T11:50:16Z</time>
      </trkpt>
      <trkpt lat="48.46973" lon="7.50814">
        <ele>231.360895</ele>
        <time>2017-06-05T11:50:21Z</time>
      </trkpt>
      <trkpt lat="48.46968" lon="7.50785">
        <ele>231.897113</ele>
        <time>2017-06-05T11:50:26Z</time>
      </trkpt>
      <trkpt lat="48.46963" lon="7.50753">
        <ele>232.168883</ele>
        <time>2017-06-05T11:50:31Z</time>
      </trkpt>
      <trkpt lat="48.46953" lon="7.5072">
        <ele>233.572879</ele>
        <time>2017-06-05T11:50:36Z</time>
      </trkpt>
      <trkpt lat="48.4694" lon="7.50682">
        <ele>233.037392</ele>
        <time>2017-06-05T11:50:41Z</time>
      </trkpt>
      <trkpt lat="48.46928" lon="7.50649">
        <ele>232.853167</ele>
        <time>2017-06-05T11:50:46Z</time>
      </trkpt>
      <trkpt lat="48.46919" lon="7.50615">
        <ele>236.325445</ele>
        <time>2017-06-05T11:50:51Z</time>
      </trkpt>
      <trkpt lat="48.46905" lon="7.50582">
        <ele>235.301608</ele>
        <time>2017-06-05T11:50:56Z</time>
      </trkpt>
      <trkpt lat="48.46892" lon="7.50546">
        <ele>234.853288</ele>
        <time>2017-06-05T11:51:01Z</time>
      </trkpt>
      <trkpt lat="48.46879" lon="7.50512">
        <ele>233.172373</ele>
        <time>2017-06-05T11:51:06Z</time>
      </trkpt>
      <trkpt lat="48.46867" lon="7.50477">
        <ele>232.815577</ele>
        <time>2017-06-05T11:51:11Z</time>
      </trkpt>
      <trkpt lat="48.46858" lon="7.50445">
        <ele>232.243829</ele>
        <time>2017-06-05T11:51:16Z</time>
      </trkpt>
      <trkpt lat="48.46849" lon="7.50414">
        <ele>232.329532</ele>
        <time>2017-06-05T11:51:21Z</time>
      </trkpt>
      <trkpt lat="48.46841" lon="7.50387">
        <ele>232.108981</ele>
        <time>2017-06-05T11:51:26Z</time>
      </trkpt>
      <trkpt lat="48.46831" lon="7.50358">
        <ele>232.368043</ele>
        <time>2017-06-05T11:51:31Z</time>
      </trkpt>
      <trkpt lat="48.46821" lon="7.50329">
        <ele>231.221248</ele>
        <time>2017-06-05T11:51:36Z</time>
      </trkpt>
      <trkpt lat="48.46811" lon="7.50295">
        <ele>231.04295</ele>
        <time>2017-06-05T11:51:41Z</time>
      </trkpt>
      <trkpt lat="48.468" lon="7.5026">
        <ele>230.7782</ele>
        <time>2017-06-05T11:51:46Z</time>
      </trkpt>
      <trkpt lat="48.4679" lon="7.50227">
        <ele>231.435305</ele>
        <time>2017-06-05T11:51:51Z</time>
      </trkpt>
      <trkpt lat="48.46781" lon="7.50197">
        <ele>230.950925</ele>
        <time>2017-06-05T11:51:56Z</time>
      </trkpt>
      <trkpt lat="48.46771" lon="7.50164">
        <ele>230.950879</ele>
        <time>2017-06-05T11:52:01Z</time>
      </trkpt>
      <trkpt lat="48.4676" lon="7.5013">
        <ele>230.024588</ele>
        <time>2017-06-05T11:52:06Z</time>
      </trkpt>
      <trkpt lat="48.46749" lon="7.50095">
        <ele>229.098424</ele>
        <time>2017-06-05T11:52:11Z</time>
      </trkpt>
      <trkpt lat="48.46735" lon="7.50066">
        <ele>228.336182</ele>
        <time>2017-06-05T11:52:16Z</time>
      </trkpt>
      <trkpt lat="48.46718" lon="7.50036">
        <ele>228.797603</ele>
        <time>2017-06-05T11:52:21Z</time>
      </trkpt>
      <trkpt lat="48.46701" lon="7.50005">
        <ele>230.578561</ele>
        <time>2017-06-05T11:52:26Z</time>
      </trkpt>
      <trkpt lat="48.46681" lon="7.49975">
        <ele>230.766674</ele>
        <time>2017-06-05T11:52:31Z</time>
      </trkpt>
      <trkpt lat="48.4666" lon="7.49943">
        <ele>229.462455</ele>
        <time>2017-06-05T11:52:36Z</time>
      </trkpt>
      <trkpt lat="48.46641" lon="7.49912">
        <ele>228.906968</ele>
        <time>2017-06-05T11:52:41Z</time>
      </trkpt>
      <trkpt lat="48.46622" lon="7.49887">
        <ele>229.624048</ele>
        <time>2017-06-05T11:52:46Z</time>
      </trkpt>
      <trkpt lat="48.466" lon="7.49876">
        <ele>233.17411</ele>
        <time>2017-06-05T11:52:51Z</time>
      </trkpt>
      <trkpt lat="48.46572" lon="7.49871">
        <ele>233.236451</ele>
        <time>2017-06-05T11:52:56Z</time>
      </trkpt>
      <trkpt lat="48.46542" lon="7.49862">
        <ele>235.006921</ele>
        <time>2017-06-05T11:53:01Z</time>
      </trkpt>
      <trkpt lat="48.46515" lon="7.49858">
        <ele>233.750147</ele>
        <time>2017-06-05T11:53:06Z</time>
      </trkpt>
      <trkpt lat="48.4649" lon="7.49853">
        <ele>231.840719</ele>
        <time>2017-06-05T11:53:11Z</time>
      </trkpt>
      <trkpt lat="48.46464" lon="7.49855">
        <ele>231.770037</ele>
        <time>2017-06-05T11:53:16Z</time>
      </trkpt>
      <trkpt lat="48.46437" lon="7.49853">
        <ele>229.942796</ele>
        <time>2017-06-05T11:53:21Z</time>
      </trkpt>
      <trkpt lat="48.46413" lon="7.4985">
        <ele>232.515814</ele>
        <time>2017-06-05T11:53:26Z</time>
      </trkpt>
      <trkpt lat="48.46391" lon="7.49846">
        <ele>231.537659</ele>
        <time>2017-06-05T11:53:31Z</time>
      </trkpt>
      <trkpt lat="48.46387" lon="7.49822">
        <ele>228.953615</ele>
        <time>2017-06-05T11:53:36Z</time>
      </trkpt>
      <trkpt lat="48.46391" lon="7.49789">
        <ele>229.036017</ele>
        <time>2017-06-05T11:53:41Z</time>
      </trkpt>
      <trkpt lat="48.46395" lon="7.49751">
        <ele>227.45299</ele>
        <time>2017-06-05T11:53:46Z</time>
      </trkpt>
      <trkpt lat="48.46403" lon="7.49714">
        <ele>226.800862</ele>
        <time>2017-06-05T11:53:51Z</time>
      </trkpt>
      <trkpt lat="48.46409" lon="7.49674">
        <ele>228.696638</ele>
        <time>2017-06-05T11:53:56Z</time>
      </trkpt>
      <trkpt lat="48.46415" lon="7.49634">
        <ele>227.780636</ele>
        <time>2017-06-05T11:54:01Z</time>
      </trkpt>
      <trkpt lat="48.4642" lon="7.49595">
        <ele>228.266124</ele>
        <time>2017-06-05T11:54:06Z</time>
      </trkpt>
      <trkpt lat="48.46426" lon="7.49563">
        <ele>227.869403</ele>
        <time>2017-06-05T11:54:11Z</time>
      </trkpt>
      <trkpt lat="48.46432" lon="7.49534">
        <ele>228.39431</ele>
        <time>2017-06-05T11:54:16Z</time>
      </trkpt>
      <trkpt lat="48.46439" lon="7.49505">
        <ele>227.513335</ele>
        <time>2017-06-05T11:54:21Z</time>
      </trkpt>
      <trkpt lat="48.46444" lon="7.4948">
        <ele>231.1098</ele>
        <time>2017-06-05T11:54:26Z</time>
      </trkpt>
      <trkpt lat="48.46444" lon="7.49447">
        <ele>232.412304</ele>
        <time>2017-06-05T11:54:31Z</time>
      </trkpt>
      <trkpt lat="48.46451" lon="7.4941">
        <ele>233.076049</ele>
        <time>2017-06-05T11:54:36Z</time>
      </trkpt>
      <trkpt lat="48.46458" lon="7.49377">
        <ele>232.027097</ele>
        <time>2017-06-05T11:54:41Z</time>
      </trkpt>
      <trkpt lat="48.46465" lon="7.49339">
        <ele>229.13526</ele>
        <time>2017-06-05T11:54:46Z</time>
      </trkpt>
      <trkpt lat="48.46471" lon="7.493">
        <ele>228.96436</ele>
        <time>2017-06-05T11:54:51Z</time>
      </trkpt>
      <trkpt lat="48.46478" lon="7.49271">
        <ele>230.987076</ele>
        <time>2017-06-05T11:54:56Z</time>
      </trkpt>
      <trkpt lat="48.4648" lon="7.49245">
        <ele>230.750224</ele>
        <time>2017-06-05T11:55:01Z</time>
      </trkpt>
      <trkpt lat="48.46492" lon="7.49233">
        <ele>234.923689</ele>
        <time>2017-06-05T11:55:06Z</time>
      </trkpt>
      <trkpt lat="48.46506" lon="7.49225">
        <ele>245.249172</ele>
        <time>2017-06-05T11:55:11Z</time>
      </trkpt>
      <trkpt lat="48.46522" lon="7.49215">
        <ele>247.719215</ele>
        <time>2017-06-05T11:55:16Z</time>
      </trkpt>
      <trkpt lat="48.46538" lon="7.49208">
        <ele>248.207712</ele>
        <time>2017-06-05T11:55:21Z</time>
      </trkpt>
      <trkpt lat="48.46544" lon="7.49182">
        <ele>242.534128</ele>
        <time>2017-06-05T11:55:26Z</time>
      </trkpt>
      <trkpt lat="48.46548" lon="7.49149">
        <ele>237.652028</ele>
        <time>2017-06-05T11:55:31Z</time>
      </trkpt>
      <trkpt lat="48.46556" lon="7.49116">
        <ele>234.45413</ele>
        <time>2017-06-05T11:55:36Z</time>
      </trkpt>
      <trkpt lat="48.46565" lon="7.49084">
        <ele>235.647134</ele>
        <time>2017-06-05T11:55:41Z</time>
      </trkpt>
      <trkpt lat="48.46571" lon="7.49056">
        <ele>235.602435</ele>
        <time>2017-06-05T11:55:46Z</time>
      </trkpt>
      <trkpt lat="48.46579" lon="7.49038">
        <ele>237.002579</ele>
        <time>2017-06-05T11:55:51Z</time>
      </trkpt>
      <trkpt lat="48.46593" lon="7.49041">
        <ele>238.0917</ele>
        <time>2017-06-05T11:55:56Z</time>
      </trkpt>
      <trkpt lat="48.46617" lon="7.49056">
        <ele>238.45183</ele>
        <time>2017-06-05T11:56:01Z</time>
      </trkpt>
      <trkpt lat="48.46637" lon="7.49072">
        <ele>238.71147</ele>
        <time>2017-06-05T11:56:06Z</time>
      </trkpt>
      <trkpt lat="48.4666" lon="7.49087">
        <ele>237.574705</ele>
        <time>2017-06-05T11:56:11Z</time>
      </trkpt>
      <trkpt lat="48.46684" lon="7.49101">
        <ele>237.186631</ele>
        <time>2017-06-05T11:56:16Z</time>
      </trkpt>
      <trkpt lat="48.46706" lon="7.49121">
        <ele>236.395884</ele>
        <time>2017-06-05T11:56:21Z</time>
      </trkpt>
      <trkpt lat="48.46729" lon="7.4914">
        <ele>234.861435</ele>
        <time>2017-06-05T11:56:26Z</time>
      </trkpt>
      <trkpt lat="48.46754" lon="7.49161">
        <ele>233.591213</ele>
        <time>2017-06-05T11:56:31Z</time>
      </trkpt>
      <trkpt lat="48.46777" lon="7.4918">
        <ele>233.463006</ele>
        <time>2017-06-05T11:56:36Z</time>
      </trkpt>
      <trkpt lat="48.468" lon="7.49197">
        <ele>232.499896</ele>
        <time>2017-06-05T11:56:41Z</time>
      </trkpt>
      <trkpt lat="48.46822" lon="7.49216">
        <ele>233.11578</ele>
        <time>2017-06-05T11:56:46Z</time>
      </trkpt>
      <trkpt lat="48.46845" lon="7.49234">
        <ele>232.901512</ele>
        <time>2017-06-05T11:56:51Z</time>
      </trkpt>
      <trkpt lat="48.46867" lon="7.4925">
        <ele>234.002111</ele>
        <time>2017-06-05T11:56:56Z</time>
      </trkpt>
      <trkpt lat="48.46887" lon="7.49267">
        <ele>234.263001</ele>
        <time>2017-06-05T11:57:01Z</time>
      </trkpt>
      <trkpt lat="48.46909" lon="7.49283">
        <ele>236.021189</ele>
        <time>2017-06-05T11:57:06Z</time>
      </trkpt>
      <trkpt lat="48.46932" lon="7.49302">
        <ele>238.048432</ele>
        <time>2017-06-05T11:57:11Z</time>
      </trkpt>
      <trkpt lat="48.46957" lon="7.49319">
        <ele>237.926036</ele>
        <time>2017-06-05T11:57:16Z</time>
      </trkpt>
      <trkpt lat="48.46979" lon="7.49337">
        <ele>238.456344</ele>
        <time>2017-06-05T11:57:21Z</time>
      </trkpt>
      <trkpt lat="48.47001" lon="7.49357">
        <ele>238.324638</ele>
        <time>2017-06-05T11:57:26Z</time>
      </trkpt>
      <trkpt lat="48.47021" lon="7.49373">
        <ele>239.992159</ele>
        <time>2017-06-05T11:57:31Z</time>
      </trkpt>
      <trkpt lat="48.47041" lon="7.4939">
        <ele>240.911167</ele>
        <time>2017-06-05T11:57:36Z</time>
      </trkpt>
      <trkpt lat="48.47066" lon="7.49404">
        <ele>239.959134</ele>
        <time>2017-06-05T11:57:41Z</time>
      </trkpt>
      <trkpt lat="48.47089" lon="7.49422">
        <ele>238.340288</ele>
        <time>2017-06-05T11:57:46Z</time>
      </trkpt>
      <trkpt lat="48.47112" lon="7.49439">
        <ele>237.378908</ele>
        <time>2017-06-05T11:57:51Z</time>
      </trkpt>
      <trkpt lat="48.47131" lon="7.49455">
        <ele>237.549726</ele>
        <time>2017-06-05T11:57:56Z</time>
      </trkpt>
      <trkpt lat="48.47147" lon="7.49468">
        <ele>238.022416</ele>
        <time>2017-06-05T11:58:01Z</time>
      </trkpt>
      <trkpt lat="48.47163" lon="7.49484">
        <ele>239.416753</ele>
        <time>2017-06-05T11:58:06Z</time>
      </trkpt>
      <trkpt lat="48.47179" lon="7.49503">
        <ele>243.79603</ele>
        <time>2017-06-05T11:58:11Z</time>
      </trkpt>
      <trkpt lat="48.47199" lon="7.49519">
        <ele>245.464444</ele>
        <time>2017-06-05T11:58:16Z</time>
      </trkpt>
      <trkpt lat="48.47224" lon="7.49535">
        <ele>243.193885</ele>
        <time>2017-06-05T11:58:21Z</time>
      </trkpt>
      <trkpt lat="48.47249" lon="7.49551">
        <ele>241.580788</ele>
        <time>2017-06-05T11:58:26Z</time>
      </trkpt>
      <trkpt lat="48.47273" lon="7.49567">
        <ele>240.625142</ele>
        <time>2017-06-05T11:58:31Z</time>
      </trkpt>
      <trkpt lat="48.47295" lon="7.49583">
        <ele>240.235602</ele>
        <time>2017-06-05T11:58:36Z</time>
      </trkpt>
      <trkpt lat="48.47316" lon="7.496">
        <ele>239.841326</ele>
        <time>2017-06-05T11:58:41Z</time>
      </trkpt>
      <trkpt lat="48.47339" lon="7.49615">
        <ele>238.794712</ele>
        <time>2017-06-05T11:58:46Z</time>
      </trkpt>
      <trkpt lat="48.47357" lon="7.49632">
        <ele>238.966605</ele>
        <time>2017-06-05T11:58:51Z</time>
      </trkpt>
      <trkpt lat="48.47373" lon="7.49645">
        <ele>239.440188</ele>
        <time>2017-06-05T11:58:56Z</time>
      </trkpt>
      <trkpt lat="48.47385" lon="7.49658">
        <ele>239.639759</ele>
        <time>2017-06-05T11:59:01Z</time>
      </trkpt>
      <trkpt lat="48.474" lon="7.49669">
        <ele>240.684254</ele>
        <time>2017-06-05T11:59:06Z</time>
      </trkpt>
      <trkpt lat="48.47416" lon="7.4968">
        <ele>238.830414</ele>
        <time>2017-06-05T11:59:11Z</time>
      </trkpt>
      <trkpt lat="48.47432" lon="7.49691">
        <ele>239.879894</ele>
        <time>2017-06-05T11:59:16Z</time>
      </trkpt>
      <trkpt lat="48.47453" lon="7.49706">
        <ele>240.057112</ele>
        <time>2017-06-05T11:59:21Z</time>
      </trkpt>
      <trkpt lat="48.47472" lon="7.4972">
        <ele>240.056548</ele>
        <time>2017-06-05T11:59:26Z</time>
      </trkpt>
      <trkpt lat="48.47486" lon="7.49733">
        <ele>239.033251</ele>
        <time>2017-06-05T11:59:31Z</time>
      </trkpt>
      <trkpt lat="48.47503" lon="7.49745">
        <ele>238.106284</ele>
        <time>2017-06-05T11:59:36Z</time>
      </trkpt>
      <trkpt lat="48.47521" lon="7.49759">
        <ele>238.01456</ele>
        <time>2017-06-05T11:59:41Z</time>
      </trkpt>
      <trkpt lat="48.47539" lon="7.49773">
        <ele>238.758089</ele>
        <time>2017-06-05T11:59:46Z</time>
      </trkpt>
      <trkpt lat="48.47555" lon="7.49785">
        <ele>239.145884</ele>
        <time>2017-06-05T11:59:51Z</time>
      </trkpt>
      <trkpt lat="48.47573" lon="7.498">
        <ele>239.140892</ele>
        <time>2017-06-05T11:59:56Z</time>
      </trkpt>
      <trkpt lat="48.47592" lon="7.49814">
        <ele>239.140882</ele>
        <time>2017-06-05T12:00:01Z</time>
      </trkpt>
      <trkpt lat="48.47609" lon="7.49827">
        <ele>238.300863</ele>
        <time>2017-06-05T12:00:06Z</time>
      </trkpt>
      <trkpt lat="48.47627" lon="7.49841">
        <ele>237.552337</ele>
        <time>2017-06-05T12:00:11Z</time>
      </trkpt>
      <trkpt lat="48.47644" lon="7.49855">
        <ele>237.369727</ele>
        <time>2017-06-05T12:00:16Z</time>
      </trkpt>
      <trkpt lat="48.4766" lon="7.49865">
        <ele>237.671412</ele>
        <time>2017-06-05T12:00:21Z</time>
      </trkpt>
      <trkpt lat="48.47679" lon="7.49876">
        <ele>237.498769</ele>
        <time>2017-06-05T12:00:26Z</time>
      </trkpt>
      <trkpt lat="48.47699" lon="7.49886">
        <ele>239.394323</ele>
        <time>2017-06-05T12:00:31Z</time>
      </trkpt>
      <trkpt lat="48.47718" lon="7.4989">
        <ele>240.195204</ele>
        <time>2017-06-05T12:00:36Z</time>
      </trkpt>
      <trkpt lat="48.47739" lon="7.4989">
        <ele>240.07937</ele>
        <time>2017-06-05T12:00:41Z</time>
      </trkpt>
      <trkpt lat="48.47761" lon="7.49887">
        <ele>239.138284</ele>
        <time>2017-06-05T12:00:46Z</time>
      </trkpt>
      <trkpt lat="48.47785" lon="7.49881">
        <ele>238.772971</ele>
        <time>2017-06-05T12:00:51Z</time>
      </trkpt>
      <trkpt lat="48.47809" lon="7.49876">
        <ele>238.585745</ele>
        <time>2017-06-05T12:00:56Z</time>
      </trkpt>
      <trkpt lat="48.47835" lon="7.49869">
        <ele>238.317088</ele>
        <time>2017-06-05T12:01:01Z</time>
      </trkpt>
      <trkpt lat="48.47867" lon="7.49859">
        <ele>236.749015</ele>
        <time>2017-06-05T12:01:06Z</time>
      </trkpt>
      <trkpt lat="48.47896" lon="7.49851">
        <ele>235.919897</ele>
        <time>2017-06-05T12:01:11Z</time>
      </trkpt>
      <trkpt lat="48.47928" lon="7.49844">
        <ele>235.273939</ele>
        <time>2017-06-05T12:01:16Z</time>
      </trkpt>
      <trkpt lat="48.4796" lon="7.49835">
        <ele>235.947616</ele>
        <time>2017-06-05T12:01:21Z</time>
      </trkpt>
      <trkpt lat="48.47991" lon="7.49829">
        <ele>233.233906</ele>
        <time>2017-06-05T12:01:26Z</time>
      </trkpt>
      <trkpt lat="48.48019" lon="7.49823">
        <ele>233.892941</ele>
        <time>2017-06-05T12:01:31Z</time>
      </trkpt>
      <trkpt lat="48.48046" lon="7.49816">
        <ele>234.374105</ele>
        <time>2017-06-05T12:01:36Z</time>
      </trkpt>
      <trkpt lat="48.48071" lon="7.4981">
        <ele>234.850382</ele>
        <time>2017-06-05T12:01:41Z</time>
      </trkpt>
      <trkpt lat="48.48095" lon="7.49804">
        <ele>235.235252</ele>
        <time>2017-06-05T12:01:46Z</time>
      </trkpt>
      <trkpt lat="48.48121" lon="7.49799">
        <ele>235.054579</ele>
        <time>2017-06-05T12:01:51Z</time>
      </trkpt>
      <trkpt lat="48.48144" lon="7.49794">
        <ele>234.777444</ele>
        <time>2017-06-05T12:01:56Z</time>
      </trkpt>
      <trkpt lat="48.48168" lon="7.49788">
        <ele>235.162664</ele>
        <time>2017-06-05T12:02:01Z</time>
      </trkpt>
      <trkpt lat="48.48192" lon="7.49782">
        <ele>235.547999</ele>
        <time>2017-06-05T12:02:06Z</time>
      </trkpt>
      <trkpt lat="48.48215" lon="7.49776">
        <ele>237.247821</ele>
        <time>2017-06-05T12:02:11Z</time>
      </trkpt>
      <trkpt lat="48.48239" lon="7.49772">
        <ele>236.400432</ele>
        <time>2017-06-05T12:02:16Z</time>
      </trkpt>
      <trkpt lat="48.4826" lon="7.49766">
        <ele>236.602954</ele>
        <time>2017-06-05T12:02:21Z</time>
      </trkpt>
      <trkpt lat="48.48282" lon="7.49762">
        <ele>236.321376</ele>
        <time>2017-06-05T12:02:26Z</time>
      </trkpt>
      <trkpt lat="48.48304" lon="7.49756">
        <ele>236.524085</ele>
        <time>2017-06-05T12:02:31Z</time>
      </trkpt>
      <trkpt lat="48.48325" lon="7.49752">
        <ele>236.899867</ele>
        <time>2017-06-05T12:02:36Z</time>
      </trkpt>
      <trkpt lat="48.48347" lon="7.49747">
        <ele>237.189249</ele>
        <time>2017-06-05T12:02:41Z</time>
      </trkpt>
      <trkpt lat="48.4837" lon="7.49741">
        <ele>236.82667</ele>
        <time>2017-06-05T12:02:46Z</time>
      </trkpt>
      <trkpt lat="48.48392" lon="7.49739">
        <ele>238.037986</ele>
        <time>2017-06-05T12:02:51Z</time>
      </trkpt>
      <trkpt lat="48.48412" lon="7.49735">
        <ele>239.728458</ele>
        <time>2017-06-05T12:02:56Z</time>
      </trkpt>
      <trkpt lat="48.48434" lon="7.49731">
        <ele>240.853468</ele>
        <time>2017-06-05T12:03:01Z</time>
      </trkpt>
      <trkpt lat="48.48455" lon="7.49723">
        <ele>240.970342</ele>
        <time>2017-06-05T12:03:06Z</time>
      </trkpt>
      <trkpt lat="48.48479" lon="7.49717">
        <ele>242.762982</ele>
        <time>2017-06-05T12:03:11Z</time>
      </trkpt>
      <trkpt lat="48.48501" lon="7.49712">
        <ele>243.05302</ele>
        <time>2017-06-05T12:03:16Z</time>
      </trkpt>
      <trkpt lat="48.48525" lon="7.49708">
        <ele>243.526425</ele>
        <time>2017-06-05T12:03:21Z</time>
      </trkpt>
      <trkpt lat="48.48547" lon="7.49701">
        <ele>243.073032</ele>
        <time>2017-06-05T12:03:26Z</time>
      </trkpt>
      <trkpt lat="48.48568" lon="7.49696">
        <ele>243.363358</ele>
        <time>2017-06-05T12:03:31Z</time>
      </trkpt>
      <trkpt lat="48.48588" lon="7.49692">
        <ele>243.648599</ele>
        <time>2017-06-05T12:03:36Z</time>
      </trkpt>
      <trkpt lat="48.48611" lon="7.49689">
        <ele>244.117237</ele>
        <time>2017-06-05T12:03:41Z</time>
      </trkpt>
      <trkpt lat="48.48632" lon="7.49684">
        <ele>245.813764</ele>
        <time>2017-06-05T12:03:46Z</time>
      </trkpt>
      <trkpt lat="48.48653" lon="7.49677">
        <ele>248.081037</ele>
        <time>2017-06-05T12:03:51Z</time>
      </trkpt>
      <trkpt lat="48.48673" lon="7.49673">
        <ele>248.366614</ele>
        <time>2017-06-05T12:03:56Z</time>
      </trkpt>
      <trkpt lat="48.48694" lon="7.49669">
        <ele>249.401075</ele>
        <time>2017-06-05T12:04:01Z</time>
      </trkpt>
      <trkpt lat="48.48714" lon="7.49669">
        <ele>248.540303</ele>
        <time>2017-06-05T12:04:06Z</time>
      </trkpt>
      <trkpt lat="48.48735" lon="7.49668">
        <ele>249.090753</ele>
        <time>2017-06-05T12:04:11Z</time>
      </trkpt>
      <trkpt lat="48.48755" lon="7.49669">
        <ele>247.573021</ele>
        <time>2017-06-05T12:04:16Z</time>
      </trkpt>
      <trkpt lat="48.48773" lon="7.49672">
        <ele>244.63899</ele>
        <time>2017-06-05T12:04:21Z</time>
      </trkpt>
      <trkpt lat="48.48776" lon="7.49646">
        <ele>243.744854</ele>
        <time>2017-06-05T12:04:26Z</time>
      </trkpt>
      <trkpt lat="48.48774" lon="7.49619">
        <ele>240.334468</ele>
        <time>2017-06-05T12:04:31Z</time>
      </trkpt>
      <trkpt lat="48.4878" lon="7.49607">
        <ele>239.836607</ele>
        <time>2017-06-05T12:04:36Z</time>
      </trkpt>
      <trkpt lat="48.48785" lon="7.49606">
        <ele>240.865758</ele>
        <time>2017-06-05T12:04:41Z</time>
      </trkpt>
      <trkpt lat="48.48796" lon="7.49603">
        <ele>242.088798</ele>
        <time>2017-06-05T12:04:46Z</time>
      </trkpt>
      <trkpt lat="48.48818" lon="7.49595">
        <ele>246.425062</ele>
        <time>2017-06-05T12:04:51Z</time>
      </trkpt>
      <trkpt lat="48.48843" lon="7.49584">
        <ele>245.153465</ele>
        <time>2017-06-05T12:04:56Z</time>
      </trkpt>
      <trkpt lat="48.48868" lon="7.49577">
        <ele>246.204417</ele>
        <time>2017-06-05T12:05:01Z</time>
      </trkpt>
      <trkpt lat="48.4889" lon="7.49573">
        <ele>247.331417</ele>
        <time>2017-06-05T12:05:06Z</time>
      </trkpt>
      <trkpt lat="48.48912" lon="7.49565">
        <ele>248.199137</ele>
        <time>2017-06-05T12:05:11Z</time>
      </trkpt>
      <trkpt lat="48.48932" lon="7.49558">
        <ele>248.969942</ele>
        <time>2017-06-05T12:05:16Z</time>
      </trkpt>
      <trkpt lat="48.4895" lon="7.49554">
        <ele>250.57083</ele>
        <time>2017-06-05T12:05:21Z</time>
      </trkpt>
      <trkpt lat="48.48961" lon="7.49554">
        <ele>254.779</ele>
        <time>2017-06-05T12:06:24Z</time>
      </trkpt>
      <trkpt lat="48.4896" lon="7.49553">
        <ele>248.97709</ele>
        <time>2017-06-05T12:08:10Z</time>
      </trkpt>
      <trkpt lat="48.48958" lon="7.49544">
        <ele>246.033656</ele>
        <time>2017-06-05T12:08:15Z</time>
      </trkpt>
      <trkpt lat="48.48959" lon="7.49544">
        <ele>218.399282</ele>
        <time>2017-06-05T12:09:21Z</time>
      </trkpt>
      <trkpt lat="48.4894" lon="7.49507">
        <ele>256.641977</ele>
        <time>2017-06-05T13:18:00Z</time>
      </trkpt>
      <trkpt lat="48.48936" lon="7.49469">
        <ele>250.202042</ele>
        <time>2017-06-05T13:18:05Z</time>
      </trkpt>
      <trkpt lat="48.48933" lon="7.49443">
        <ele>247.535549</ele>
        <time>2017-06-05T13:18:10Z</time>
      </trkpt>
      <trkpt lat="48.4894" lon="7.4942">
        <ele>244.940602</ele>
        <time>2017-06-05T13:18:15Z</time>
      </trkpt>
      <trkpt lat="48.48957" lon="7.49411">
        <ele>248.253536</ele>
        <time>2017-06-05T13:18:20Z</time>
      </trkpt>
      <trkpt lat="48.48974" lon="7.49404">
        <ele>250.24704</ele>
        <time>2017-06-05T13:18:25Z</time>
      </trkpt>
      <trkpt lat="48.4899" lon="7.49396">
        <ele>254.303625</ele>
        <time>2017-06-05T13:18:30Z</time>
      </trkpt>
      <trkpt lat="48.49006" lon="7.49389">
        <ele>259.103792</ele>
        <time>2017-06-05T13:18:35Z</time>
      </trkpt>
      <trkpt lat="48.49022" lon="7.49382">
        <ele>261.754557</ele>
        <time>2017-06-05T13:18:40Z</time>
      </trkpt>
      <trkpt lat="48.49032" lon="7.49358">
        <ele>250.077832</ele>
        <time>2017-06-05T13:18:45Z</time>
      </trkpt>
      <trkpt lat="48.49028" lon="7.4933">
        <ele>248.639281</ele>
        <time>2017-06-05T13:18:50Z</time>
      </trkpt>
      <trkpt lat="48.49025" lon="7.49314">
        <ele>250.882252</ele>
        <time>2017-06-05T13:18:55Z</time>
      </trkpt>
      <trkpt lat="48.49018" lon="7.49285">
        <ele>246.362017</ele>
        <time>2017-06-05T13:19:00Z</time>
      </trkpt>
      <trkpt lat="48.49015" lon="7.4926">
        <ele>244.4394</ele>
        <time>2017-06-05T13:19:05Z</time>
      </trkpt>
      <trkpt lat="48.49029" lon="7.49246">
        <ele>247.131756</ele>
        <time>2017-06-05T13:19:10Z</time>
      </trkpt>
      <trkpt lat="48.49043" lon="7.49241">
        <ele>249.863763</ele>
        <time>2017-06-05T13:19:15Z</time>
      </trkpt>
      <trkpt lat="48.4906" lon="7.49232">
        <ele>251.771241</ele>
        <time>2017-06-05T13:19:20Z</time>
      </trkpt>
      <trkpt lat="48.49079" lon="7.49226">
        <ele>248.233241</ele>
        <time>2017-06-05T13:19:25Z</time>
      </trkpt>
      <trkpt lat="48.49092" lon="7.49219">
        <ele>248.632434</ele>
        <time>2017-06-05T13:19:30Z</time>
      </trkpt>
      <trkpt lat="48.491" lon="7.49203">
        <ele>246.561975</ele>
        <time>2017-06-05T13:19:35Z</time>
      </trkpt>
      <trkpt lat="48.49097" lon="7.49177">
        <ele>246.05077</ele>
        <time>2017-06-05T13:19:40Z</time>
      </trkpt>
      <trkpt lat="48.49093" lon="7.49152">
        <ele>243.379479</ele>
        <time>2017-06-05T13:19:45Z</time>
      </trkpt>
      <trkpt lat="48.49087" lon="7.49128">
        <ele>242.017045</ele>
        <time>2017-06-05T13:19:50Z</time>
      </trkpt>
      <trkpt lat="48.4908" lon="7.49106">
        <ele>243.63934</ele>
        <time>2017-06-05T13:19:55Z</time>
      </trkpt>
      <trkpt lat="48.49073" lon="7.49085">
        <ele>242.449819</ele>
        <time>2017-06-05T13:20:00Z</time>
      </trkpt>
      <trkpt lat="48.49066" lon="7.49062">
        <ele>241.922795</ele>
        <time>2017-06-05T13:20:05Z</time>
      </trkpt>
      <trkpt lat="48.49059" lon="7.49039">
        <ele>242.052911</ele>
        <time>2017-06-05T13:20:10Z</time>
      </trkpt>
      <trkpt lat="48.49056" lon="7.49016">
        <ele>241.623116</ele>
        <time>2017-06-05T13:20:15Z</time>
      </trkpt>
      <trkpt lat="48.49051" lon="7.48993">
        <ele>241.188004</ele>
        <time>2017-06-05T13:20:20Z</time>
      </trkpt>
      <trkpt lat="48.49047" lon="7.48971">
        <ele>240.844695</ele>
        <time>2017-06-05T13:20:25Z</time>
      </trkpt>
      <trkpt lat="48.49062" lon="7.48959">
        <ele>243.802029</ele>
        <time>2017-06-05T13:20:30Z</time>
      </trkpt>
      <trkpt lat="48.49078" lon="7.48941">
        <ele>243.60739</ele>
        <time>2017-06-05T13:20:35Z</time>
      </trkpt>
      <trkpt lat="48.49099" lon="7.48923">
        <ele>243.688131</ele>
        <time>2017-06-05T13:20:40Z</time>
      </trkpt>
      <trkpt lat="48.49111" lon="7.4891">
        <ele>244.312721</ele>
        <time>2017-06-05T13:20:45Z</time>
      </trkpt>
      <trkpt lat="48.49129" lon="7.48894">
        <ele>244.296466</ele>
        <time>2017-06-05T13:20:50Z</time>
      </trkpt>
      <trkpt lat="48.49148" lon="7.48872">
        <ele>241.871783</ele>
        <time>2017-06-05T13:20:55Z</time>
      </trkpt>
      <trkpt lat="48.49163" lon="7.48854">
        <ele>242.991705</ele>
        <time>2017-06-05T13:21:00Z</time>
      </trkpt>
      <trkpt lat="48.49171" lon="7.48848">
        <ele>245.922416</ele>
        <time>2017-06-05T13:21:05Z</time>
      </trkpt>
      <trkpt lat="48.49185" lon="7.48832">
        <ele>244.311524</ele>
        <time>2017-06-05T13:21:10Z</time>
      </trkpt>
      <trkpt lat="48.49201" lon="7.48818">
        <ele>245.782509</ele>
        <time>2017-06-05T13:21:15Z</time>
      </trkpt>
      <trkpt lat="48.49211" lon="7.48804">
        <ele>247.629822</ele>
        <time>2017-06-05T13:21:20Z</time>
      </trkpt>
      <trkpt lat="48.49227" lon="7.48782">
        <ele>246.427943</ele>
        <time>2017-06-05T13:21:25Z</time>
      </trkpt>
      <trkpt lat="48.49245" lon="7.48761">
        <ele>246.066824</ele>
        <time>2017-06-05T13:21:30Z</time>
      </trkpt>
      <trkpt lat="48.49261" lon="7.48743">
        <ele>245.124207</ele>
        <time>2017-06-05T13:21:35Z</time>
      </trkpt>
      <trkpt lat="48.49273" lon="7.48729">
        <ele>247.812408</ele>
        <time>2017-06-05T13:21:40Z</time>
      </trkpt>
      <trkpt lat="48.49278" lon="7.48723">
        <ele>247.656054</ele>
        <time>2017-06-05T13:21:45Z</time>
      </trkpt>
      <trkpt lat="48.49284" lon="7.48717">
        <ele>244.122582</ele>
        <time>2017-06-05T13:21:50Z</time>
      </trkpt>
      <trkpt lat="48.49288" lon="7.48714">
        <ele>242.733015</ele>
        <time>2017-06-05T13:21:55Z</time>
      </trkpt>
      <trkpt lat="48.49292" lon="7.48711">
        <ele>242.749387</ele>
        <time>2017-06-05T13:22:04Z</time>
      </trkpt>
      <trkpt lat="48.49299" lon="7.48691">
        <ele>241.821353</ele>
        <time>2017-06-05T13:22:09Z</time>
      </trkpt>
      <trkpt lat="48.49302" lon="7.48669">
        <ele>241.94297</ele>
        <time>2017-06-05T13:22:14Z</time>
      </trkpt>
      <trkpt lat="48.4931" lon="7.48648">
        <ele>240.271611</ele>
        <time>2017-06-05T13:22:19Z</time>
      </trkpt>
      <trkpt lat="48.49314" lon="7.48619">
        <ele>239.961605</ele>
        <time>2017-06-05T13:22:24Z</time>
      </trkpt>
      <trkpt lat="48.49319" lon="7.48592">
        <ele>240.573232</ele>
        <time>2017-06-05T13:22:29Z</time>
      </trkpt>
      <trkpt lat="48.49326" lon="7.48581">
        <ele>238.849333</ele>
        <time>2017-06-05T13:22:34Z</time>
      </trkpt>
      <trkpt lat="48.49328" lon="7.48572">
        <ele>239.742726</ele>
        <time>2017-06-05T13:22:39Z</time>
      </trkpt>
      <trkpt lat="48.4933" lon="7.48558">
        <ele>240.377121</ele>
        <time>2017-06-05T13:22:44Z</time>
      </trkpt>
      <trkpt lat="48.49333" lon="7.48541">
        <ele>241.50141</ele>
        <time>2017-06-05T13:22:49Z</time>
      </trkpt>
      <trkpt lat="48.49337" lon="7.48522">
        <ele>242.631216</ele>
        <time>2017-06-05T13:22:54Z</time>
      </trkpt>
      <trkpt lat="48.49341" lon="7.48502">
        <ele>242.925846</ele>
        <time>2017-06-05T13:22:59Z</time>
      </trkpt>
      <trkpt lat="48.49346" lon="7.48473">
        <ele>241.959174</ele>
        <time>2017-06-05T13:23:04Z</time>
      </trkpt>
      <trkpt lat="48.49351" lon="7.4844">
        <ele>239.984734</ele>
        <time>2017-06-05T13:23:09Z</time>
      </trkpt>
      <trkpt lat="48.49356" lon="7.48409">
        <ele>238.931909</ele>
        <time>2017-06-05T13:23:14Z</time>
      </trkpt>
      <trkpt lat="48.4936" lon="7.4838">
        <ele>238.622541</ele>
        <time>2017-06-05T13:23:19Z</time>
      </trkpt>
      <trkpt lat="48.49365" lon="7.48353">
        <ele>240.640695</ele>
        <time>2017-06-05T13:23:24Z</time>
      </trkpt>
      <trkpt lat="48.4937" lon="7.48326">
        <ele>243.407797</ele>
        <time>2017-06-05T13:23:29Z</time>
      </trkpt>
      <trkpt lat="48.49375" lon="7.48302">
        <ele>247.004634</ele>
        <time>2017-06-05T13:23:34Z</time>
      </trkpt>
      <trkpt lat="48.49376" lon="7.48289">
        <ele>246.890474</ele>
        <time>2017-06-05T13:23:39Z</time>
      </trkpt>
      <trkpt lat="48.49376" lon="7.48282">
        <ele>245.710074</ele>
        <time>2017-06-05T13:23:52Z</time>
      </trkpt>
      <trkpt lat="48.49377" lon="7.48267">
        <ele>243.354811</ele>
        <time>2017-06-05T13:23:57Z</time>
      </trkpt>
      <trkpt lat="48.49382" lon="7.48241">
        <ele>242.561355</ele>
        <time>2017-06-05T13:24:02Z</time>
      </trkpt>
      <trkpt lat="48.49387" lon="7.48216">
        <ele>242.603144</ele>
        <time>2017-06-05T13:24:07Z</time>
      </trkpt>
      <trkpt lat="48.49393" lon="7.48182">
        <ele>242.7843</ele>
        <time>2017-06-05T13:24:12Z</time>
      </trkpt>
      <trkpt lat="48.49398" lon="7.48152">
        <ele>243.138131</ele>
        <time>2017-06-05T13:24:17Z</time>
      </trkpt>
      <trkpt lat="48.49405" lon="7.4812">
        <ele>242.183481</ele>
        <time>2017-06-05T13:24:22Z</time>
      </trkpt>
      <trkpt lat="48.49414" lon="7.4809">
        <ele>241.407039</ele>
        <time>2017-06-05T13:24:27Z</time>
      </trkpt>
      <trkpt lat="48.49427" lon="7.48059">
        <ele>240.819917</ele>
        <time>2017-06-05T13:24:32Z</time>
      </trkpt>
      <trkpt lat="48.49443" lon="7.48028">
        <ele>238.924367</ele>
        <time>2017-06-05T13:24:37Z</time>
      </trkpt>
      <trkpt lat="48.49456" lon="7.48002">
        <ele>240.180341</ele>
        <time>2017-06-05T13:24:42Z</time>
      </trkpt>
      <trkpt lat="48.49473" lon="7.47975">
        <ele>239.38457</ele>
        <time>2017-06-05T13:24:47Z</time>
      </trkpt>
      <trkpt lat="48.4949" lon="7.4795">
        <ele>237.3555</ele>
        <time>2017-06-05T13:24:52Z</time>
      </trkpt>
      <trkpt lat="48.49508" lon="7.47929">
        <ele>236.247956</ele>
        <time>2017-06-05T13:24:57Z</time>
      </trkpt>
      <trkpt lat="48.49524" lon="7.47908">
        <ele>235.883814</ele>
        <time>2017-06-05T13:25:02Z</time>
      </trkpt>
      <trkpt lat="48.49543" lon="7.4789">
        <ele>234.470048</ele>
        <time>2017-06-05T13:25:07Z</time>
      </trkpt>
      <trkpt lat="48.49562" lon="7.47888">
        <ele>236.160018</ele>
        <time>2017-06-05T13:25:12Z</time>
      </trkpt>
      <trkpt lat="48.49578" lon="7.47871">
        <ele>233.900029</ele>
        <time>2017-06-05T13:25:17Z</time>
      </trkpt>
      <trkpt lat="48.49587" lon="7.47842">
        <ele>233.210774</ele>
        <time>2017-06-05T13:25:22Z</time>
      </trkpt>
      <trkpt lat="48.49593" lon="7.47809">
        <ele>234.142105</ele>
        <time>2017-06-05T13:25:27Z</time>
      </trkpt>
      <trkpt lat="48.49603" lon="7.47768">
        <ele>234.831715</ele>
        <time>2017-06-05T13:25:32Z</time>
      </trkpt>
      <trkpt lat="48.49615" lon="7.47725">
        <ele>232.629002</ele>
        <time>2017-06-05T13:25:37Z</time>
      </trkpt>
      <trkpt lat="48.49625" lon="7.47679">
        <ele>230.162135</ele>
        <time>2017-06-05T13:25:42Z</time>
      </trkpt>
      <trkpt lat="48.49631" lon="7.47634">
        <ele>229.569039</ele>
        <time>2017-06-05T13:25:47Z</time>
      </trkpt>
      <trkpt lat="48.49633" lon="7.47592">
        <ele>230.365095</ele>
        <time>2017-06-05T13:25:52Z</time>
      </trkpt>
      <trkpt lat="48.49631" lon="7.47555">
        <ele>229.82458</ele>
        <time>2017-06-05T13:25:57Z</time>
      </trkpt>
      <trkpt lat="48.49652" lon="7.47533">
        <ele>230.399845</ele>
        <time>2017-06-05T13:26:02Z</time>
      </trkpt>
      <trkpt lat="48.49678" lon="7.47512">
        <ele>232.748736</ele>
        <time>2017-06-05T13:26:07Z</time>
      </trkpt>
      <trkpt lat="48.49701" lon="7.47493">
        <ele>234.3375</ele>
        <time>2017-06-05T13:26:12Z</time>
      </trkpt>
      <trkpt lat="48.49718" lon="7.47479">
        <ele>236.560647</ele>
        <time>2017-06-05T13:26:17Z</time>
      </trkpt>
      <trkpt lat="48.49721" lon="7.47458">
        <ele>236.022208</ele>
        <time>2017-06-05T13:26:22Z</time>
      </trkpt>
      <trkpt lat="48.49723" lon="7.47432">
        <ele>237.94521</ele>
        <time>2017-06-05T13:26:27Z</time>
      </trkpt>
      <trkpt lat="48.49741" lon="7.47421">
        <ele>241.838749</ele>
        <time>2017-06-05T13:26:32Z</time>
      </trkpt>
      <trkpt lat="48.49758" lon="7.4741">
        <ele>249.287476</ele>
        <time>2017-06-05T13:26:37Z</time>
      </trkpt>
      <trkpt lat="48.49776" lon="7.47397">
        <ele>253.094961</ele>
        <time>2017-06-05T13:26:42Z</time>
      </trkpt>
      <trkpt lat="48.49795" lon="7.47385">
        <ele>252.776591</ele>
        <time>2017-06-05T13:26:47Z</time>
      </trkpt>
      <trkpt lat="48.49812" lon="7.47366">
        <ele>249.031616</ele>
        <time>2017-06-05T13:26:52Z</time>
      </trkpt>
      <trkpt lat="48.4983" lon="7.47342">
        <ele>242.787094</ele>
        <time>2017-06-05T13:26:57Z</time>
      </trkpt>
      <trkpt lat="48.49846" lon="7.47316">
        <ele>239.925404</ele>
        <time>2017-06-05T13:27:02Z</time>
      </trkpt>
      <trkpt lat="48.49861" lon="7.47294">
        <ele>237.230437</ele>
        <time>2017-06-05T13:27:07Z</time>
      </trkpt>
      <trkpt lat="48.49873" lon="7.47271">
        <ele>238.569538</ele>
        <time>2017-06-05T13:27:12Z</time>
      </trkpt>
      <trkpt lat="48.49881" lon="7.47241">
        <ele>238.453089</ele>
        <time>2017-06-05T13:27:17Z</time>
      </trkpt>
      <trkpt lat="48.49884" lon="7.47213">
        <ele>238.141335</ele>
        <time>2017-06-05T13:27:22Z</time>
      </trkpt>
      <trkpt lat="48.49886" lon="7.47186">
        <ele>239.229834</ele>
        <time>2017-06-05T13:27:27Z</time>
      </trkpt>
      <trkpt lat="48.49888" lon="7.4716">
        <ele>239.747555</ele>
        <time>2017-06-05T13:27:32Z</time>
      </trkpt>
      <trkpt lat="48.49889" lon="7.47137">
        <ele>240.345723</ele>
        <time>2017-06-05T13:27:37Z</time>
      </trkpt>
      <trkpt lat="48.4989" lon="7.47113">
        <ele>240.857777</ele>
        <time>2017-06-05T13:27:42Z</time>
      </trkpt>
      <trkpt lat="48.49886" lon="7.47086">
        <ele>243.727896</ele>
        <time>2017-06-05T13:27:47Z</time>
      </trkpt>
      <trkpt lat="48.4988" lon="7.47057">
        <ele>244.265101</ele>
        <time>2017-06-05T13:27:52Z</time>
      </trkpt>
      <trkpt lat="48.49878" lon="7.47034">
        <ele>244.0226</ele>
        <time>2017-06-05T13:27:57Z</time>
      </trkpt>
      <trkpt lat="48.49876" lon="7.47017">
        <ele>246.930866</ele>
        <time>2017-06-05T13:28:02Z</time>
      </trkpt>
      <trkpt lat="48.49865" lon="7.47005">
        <ele>250.467275</ele>
        <time>2017-06-05T13:28:07Z</time>
      </trkpt>
      <trkpt lat="48.49853" lon="7.46987">
        <ele>251.983181</ele>
        <time>2017-06-05T13:28:12Z</time>
      </trkpt>
      <trkpt lat="48.49852" lon="7.46972">
        <ele>254.412583</ele>
        <time>2017-06-05T13:28:17Z</time>
      </trkpt>
      <trkpt lat="48.49853" lon="7.46952">
        <ele>257.424438</ele>
        <time>2017-06-05T13:28:22Z</time>
      </trkpt>
      <trkpt lat="48.49849" lon="7.46923">
        <ele>254.498859</ele>
        <time>2017-06-05T13:28:27Z</time>
      </trkpt>
      <trkpt lat="48.49844" lon="7.469">
        <ele>253.98087</ele>
        <time>2017-06-05T13:28:32Z</time>
      </trkpt>
      <trkpt lat="48.49838" lon="7.46877">
        <ele>254.863107</ele>
        <time>2017-06-05T13:28:37Z</time>
      </trkpt>
      <trkpt lat="48.49831" lon="7.46851">
        <ele>253.418241</ele>
        <time>2017-06-05T13:28:42Z</time>
      </trkpt>
      <trkpt lat="48.49822" lon="7.46827">
        <ele>252.624676</ele>
        <time>2017-06-05T13:28:47Z</time>
      </trkpt>
      <trkpt lat="48.49813" lon="7.46802">
        <ele>252.488199</ele>
        <time>2017-06-05T13:28:52Z</time>
      </trkpt>
      <trkpt lat="48.49805" lon="7.46782">
        <ele>251.296111</ele>
        <time>2017-06-05T13:28:57Z</time>
      </trkpt>
      <trkpt lat="48.49796" lon="7.46758">
        <ele>250.502734</ele>
        <time>2017-06-05T13:29:02Z</time>
      </trkpt>
      <trkpt lat="48.49789" lon="7.4673">
        <ele>249.542972</ele>
        <time>2017-06-05T13:29:07Z</time>
      </trkpt>
      <trkpt lat="48.49781" lon="7.46701">
        <ele>247.834358</ele>
        <time>2017-06-05T13:29:12Z</time>
      </trkpt>
      <trkpt lat="48.49775" lon="7.46676">
        <ele>245.732916</ele>
        <time>2017-06-05T13:29:17Z</time>
      </trkpt>
      <trkpt lat="48.49767" lon="7.46652">
        <ele>245.688738</ele>
        <time>2017-06-05T13:29:22Z</time>
      </trkpt>
      <trkpt lat="48.4977" lon="7.46629">
        <ele>246.47169</ele>
        <time>2017-06-05T13:29:27Z</time>
      </trkpt>
      <trkpt lat="48.49788" lon="7.4662">
        <ele>249.88136</ele>
        <time>2017-06-05T13:29:32Z</time>
      </trkpt>
      <trkpt lat="48.49806" lon="7.46617">
        <ele>255.041479</ele>
        <time>2017-06-05T13:29:37Z</time>
      </trkpt>
      <trkpt lat="48.49824" lon="7.46614">
        <ele>258.7957</ele>
        <time>2017-06-05T13:29:42Z</time>
      </trkpt>
      <trkpt lat="48.49841" lon="7.4661">
        <ele>261.801047</ele>
        <time>2017-06-05T13:29:47Z</time>
      </trkpt>
      <trkpt lat="48.49859" lon="7.46607">
        <ele>266.961352</ele>
        <time>2017-06-05T13:29:52Z</time>
      </trkpt>
      <trkpt lat="48.4987" lon="7.46592">
        <ele>258.049715</ele>
        <time>2017-06-05T13:29:57Z</time>
      </trkpt>
      <trkpt lat="48.49866" lon="7.46576">
        <ele>256.734935</ele>
        <time>2017-06-05T13:30:02Z</time>
      </trkpt>
      <trkpt lat="48.49859" lon="7.46563">
        <ele>256.814495</ele>
        <time>2017-06-05T13:30:07Z</time>
      </trkpt>
      <trkpt lat="48.49851" lon="7.46545">
        <ele>256.543876</ele>
        <time>2017-06-05T13:30:12Z</time>
      </trkpt>
      <trkpt lat="48.49842" lon="7.46526">
        <ele>258.90721</ele>
        <time>2017-06-05T13:30:17Z</time>
      </trkpt>
      <trkpt lat="48.49831" lon="7.46504">
        <ele>258.8516</ele>
        <time>2017-06-05T13:30:22Z</time>
      </trkpt>
      <trkpt lat="48.49811" lon="7.46482">
        <ele>256.832837</ele>
        <time>2017-06-05T13:30:27Z</time>
      </trkpt>
      <trkpt lat="48.49788" lon="7.46453">
        <ele>253.359125</ele>
        <time>2017-06-05T13:30:32Z</time>
      </trkpt>
      <trkpt lat="48.49774" lon="7.46439">
        <ele>252.230517</ele>
        <time>2017-06-05T13:30:37Z</time>
      </trkpt>
      <trkpt lat="48.4977" lon="7.46442">
        <ele>254.367979</ele>
        <time>2017-06-05T13:30:42Z</time>
      </trkpt>
      <trkpt lat="48.49759" lon="7.46455">
        <ele>257.391704</ele>
        <time>2017-06-05T13:30:47Z</time>
      </trkpt>
      <trkpt lat="48.49752" lon="7.46452">
        <ele>253.856255</ele>
        <time>2017-06-05T13:30:52Z</time>
      </trkpt>
      <trkpt lat="48.4975" lon="7.4645">
        <ele>249.282412</ele>
        <time>2017-06-05T13:32:32Z</time>
      </trkpt>
      <trkpt lat="48.49749" lon="7.46442">
        <ele>243.70719</ele>
        <time>2017-06-05T13:32:37Z</time>
      </trkpt>
      <trkpt lat="48.49746" lon="7.46433">
        <ele>232.987182</ele>
        <time>2017-06-05T13:32:42Z</time>
      </trkpt>
      <trkpt lat="48.49742" lon="7.46431">
        <ele>215.48981</ele>
        <time>2017-06-05T13:32:47Z</time>
      </trkpt>
      <trkpt lat="48.49739" lon="7.46425">
        <ele>203.536017</ele>
        <time>2017-06-05T13:32:52Z</time>
      </trkpt>
      <trkpt lat="48.49734" lon="7.46419">
        <ele>192.147382</ele>
        <time>2017-06-05T13:32:57Z</time>
      </trkpt>
      <trkpt lat="48.49727" lon="7.46418">
        <ele>174.546535</ele>
        <time>2017-06-05T13:33:02Z</time>
      </trkpt>
      <trkpt lat="48.49729" lon="7.46412">
        <ele>157.250352</ele>
        <time>2017-06-05T13:33:07Z</time>
      </trkpt>
      <trkpt lat="48.49729" lon="7.46401">
        <ele>144.387092</ele>
        <time>2017-06-05T13:33:12Z</time>
      </trkpt>
      <trkpt lat="48.49719" lon="7.464">
        <ele>128.757379</ele>
        <time>2017-06-05T13:33:17Z</time>
      </trkpt>
      <trkpt lat="48.49714" lon="7.46396">
        <ele>116.048891</ele>
        <time>2017-06-05T13:33:22Z</time>
      </trkpt>
      <trkpt lat="48.49712" lon="7.46382">
        <ele>111.443479</ele>
        <time>2017-06-05T13:33:27Z</time>
      </trkpt>
      <trkpt lat="48.49706" lon="7.46377">
        <ele>105.015908</ele>
        <time>2017-06-05T13:33:32Z</time>
      </trkpt>
      <trkpt lat="48.49702" lon="7.46384">
        <ele>106.662715</ele>
        <time>2017-06-05T13:33:37Z</time>
      </trkpt>
      <trkpt lat="48.49705" lon="7.46388">
        <ele>99.988805</ele>
        <time>2017-06-05T13:33:42Z</time>
      </trkpt>
      <trkpt lat="48.49701" lon="7.46396">
        <ele>98.166647</ele>
        <time>2017-06-05T13:33:47Z</time>
      </trkpt>
      <trkpt lat="48.49698" lon="7.46401">
        <ele>97.578298</ele>
        <time>2017-06-05T13:33:57Z</time>
      </trkpt>
      <trkpt lat="48.49698" lon="7.46396">
        <ele>93.016078</ele>
        <time>2017-06-05T13:34:04Z</time>
      </trkpt>
      <trkpt lat="48.49695" lon="7.46395">
        <ele>79.165682</ele>
        <time>2017-06-05T13:34:09Z</time>
      </trkpt>
      <trkpt lat="48.49691" lon="7.46391">
        <ele>69.447104</ele>
        <time>2017-06-05T13:34:14Z</time>
      </trkpt>
      <trkpt lat="48.49689" lon="7.46385">
        <ele>58.242278</ele>
        <time>2017-06-05T13:34:19Z</time>
      </trkpt>
      <trkpt lat="48.49681" lon="7.46382">
        <ele>41.875309</ele>
        <time>2017-06-05T13:34:24Z</time>
      </trkpt>
      <trkpt lat="48.49674" lon="7.4638">
        <ele>25.686302</ele>
        <time>2017-06-05T13:34:29Z</time>
      </trkpt>
      <trkpt lat="48.49676" lon="7.46384">
        <ele>41.679983</ele>
        <time>2017-06-05T13:34:34Z</time>
      </trkpt>
      <trkpt lat="48.49671" lon="7.46382">
        <ele>31.298584</ele>
        <time>2017-06-05T13:34:39Z</time>
      </trkpt>
      <trkpt lat="48.49674" lon="7.46382">
        <ele>42.907998</ele>
        <time>2017-06-05T13:34:44Z</time>
      </trkpt>
      <trkpt lat="48.49676" lon="7.46387">
        <ele>46.905038</ele>
        <time>2017-06-05T13:34:56Z</time>
      </trkpt>
      <trkpt lat="48.49675" lon="7.46392">
        <ele>42.196466</ele>
        <time>2017-06-05T13:35:13Z</time>
      </trkpt>
      <trkpt lat="48.49674" lon="7.46387">
        <ele>32.575562</ele>
        <time>2017-06-05T13:35:18Z</time>
      </trkpt>
      <trkpt lat="48.4967" lon="7.46389">
        <ele>28.825185</ele>
        <time>2017-06-05T13:35:23Z</time>
      </trkpt>
      <trkpt lat="48.49668" lon="7.46386">
        <ele>15.729515</ele>
        <time>2017-06-05T13:35:28Z</time>
      </trkpt>
      <trkpt lat="48.49663" lon="7.46383">
        <ele>1.701194</ele>
        <time>2017-06-05T13:35:33Z</time>
      </trkpt>
      <trkpt lat="48.49664" lon="7.46381">
        <ele>-8.312726</ele>
        <time>2017-06-05T13:35:38Z</time>
      </trkpt>
      <trkpt lat="48.49694" lon="7.46368">
        <ele>33.233431</ele>
        <time>2017-06-05T13:35:43Z</time>
      </trkpt>
      <trkpt lat="48.49704" lon="7.46366">
        <ele>62.928545</ele>
        <time>2017-06-05T13:35:48Z</time>
      </trkpt>
    </trkseg>
  </trk>
</gpx>